Observation data for Canadian on 03/11/2018      Previous  Date       Current Mesonet Observations  Soil Data  Daily Summary Page  Observations in Plain Language
KCA1 110600Z 01020KT 12/M01 A3002 RMK A01 T01171014  RH  040%=      5-min Rain = 0
KCA1 110601Z 01018G24KT 12/M01 A3002 RMK A01 T01171014  RH  040%=      5-min Rain = 0
KCA1 110602Z 01020KT 12/M01 A3002 RMK A01 T01161014  RH  040%=      5-min Rain = 0
KCA1 110603Z 01024KT 12/M02 A3002 RMK A01 T01161015  RH  040%=      5-min Rain = 0
KCA1 110604Z 01021KT 12/M02 A3002 RMK A01 T01161015  RH  040%=      5-min Rain = 0
KCA1 110605Z 02016KT 12/M02 A3002 RMK A01 T01171015  RH  040%=      5-min Rain = 0
KCA1 110606Z 01021G26KT 12/M02 A3002 RMK A01 T01161016  RH  040%=      5-min Rain = 0
KCA1 110607Z 01019KT 12/M02 A3002 RMK A01 T01161016  RH  040%=      5-min Rain = 0
KCA1 110608Z 01020KT 12/M02 A3002 RMK A01 T01161016  RH  040%=      5-min Rain = 0
KCA1 110609Z 01021KT 12/M02 A3002 RMK A01 T01161016  RH  040%=      5-min Rain = 0
KCA1 110610Z 01020KT 12/M02 A3002 RMK A01 T01161016  RH  040%=      5-min Rain = 0
KCA1 110611Z 01017KT 12/M02 A3003 RMK A01 T01151016  RH  040%=      5-min Rain = 0
KCA1 110612Z 01021KT 12/M02 A3002 RMK A01 T01151017  RH  040%=      5-min Rain = 0
KCA1 110613Z 02018KT 12/M02 A3002 RMK A01 T01151017  RH  040%=      5-min Rain = 0
KCA1 110614Z 01021G26KT 12/M02 A3002 RMK A01 T01151017  RH  040%=      5-min Rain = 0
KCA1 110615Z 01018G23KT 12/M02 A3002 RMK A01 T01151017  RH  040%=      5-min Rain = 0
KCA1 110616Z 01018G23KT 12/M02 A3002 RMK A01 T01151017  RH  040%=      5-min Rain = 0
KCA1 110617Z 01020KT 12/M02 A3002 RMK A01 T01151017  RH  040%=      5-min Rain = 0
KCA1 110618Z 02018G23KT 12/M02 A3003 RMK A01 T01151017  RH  040%=      5-min Rain = 0
KCA1 110619Z 01020G27KT 12/M02 A3003 RMK A01 T01151017  RH  040%=      5-min Rain = 0
KCA1 110620Z 01019G25KT 11/M02 A3003 RMK A01 T01141018  RH  040%=      5-min Rain = 0
KCA1 110621Z 01014KT 12/M02 A3003 RMK A01 T01151017  RH  040%=      5-min Rain = 0
KCA1 110622Z 02017KT 11/M02 A3003 RMK A01 T01141018  RH  040%=      5-min Rain = 0
KCA1 110623Z 01016KT 11/M02 A3003 RMK A01 T01131018  RH  040%=      5-min Rain = 0
KCA1 110624Z 02019G25KT 11/M02 A3003 RMK A01 T01131017  RH  040%=      5-min Rain = 0
KCA1 110625Z 01016KT 11/M02 A3003 RMK A01 T01131018  RH  040%=      5-min Rain = 0
KCA1 110626Z 01015KT 11/M02 A3003 RMK A01 T01141018  RH  040%=      5-min Rain = 0
KCA1 110627Z 01015KT 11/M02 A3003 RMK A01 T01131018  RH  040%=      5-min Rain = 0
KCA1 110628Z 01017KT 11/M02 A3003 RMK A01 T01131017  RH  040%=      5-min Rain = 0
KCA1 110629Z 01017KT 11/M02 A3003 RMK A01 T01131018  RH  040%=      5-min Rain = 0
KCA1 110630Z 01013KT 11/M02 A3003 RMK A01 T01141017  RH  040%=      5-min Rain = 0
KCA1 110631Z 01014KT 11/M02 A3003 RMK A01 T01131017  RH  040%=      5-min Rain = 0
KCA1 110632Z 01014KT 11/M02 A3003 RMK A01 T01121018  RH  040%=      5-min Rain = 0
KCA1 110633Z 01013KT 11/M02 A3003 RMK A01 T01121018  RH  040%=      5-min Rain = 0
KCA1 110634Z 01015KT 11/M02 A3003 RMK A01 T01111018  RH  041%=      5-min Rain = 0
KCA1 110635Z 01016KT 11/M02 A3003 RMK A01 T01121017  RH  041%=      5-min Rain = 0
KCA1 110636Z 01014G19KT 11/M02 A3003 RMK A01 T01111017  RH  041%=      5-min Rain = 0
KCA1 110637Z 02015KT 11/M02 A3003 RMK A01 T01121017  RH  041%=      5-min Rain = 0
KCA1 110638Z 02014KT 11/M02 A3003 RMK A01 T01121017  RH  041%=      5-min Rain = 0
KCA1 110639Z 02012KT 11/M02 A3003 RMK A01 T01121017  RH  041%=      5-min Rain = 0
KCA1 110640Z 02011KT 11/M02 A3003 RMK A01 T01111017  RH  041%=      5-min Rain = 0
KCA1 110641Z 02013KT 11/M02 A3003 RMK A01 T01111017  RH  041%=      5-min Rain = 0
KCA1 110642Z 02014G19KT 11/M02 A3004 RMK A01 T01111017  RH  041%=      5-min Rain = 0
KCA1 110643Z 02016KT 11/M02 A3004 RMK A01 T01111016  RH  041%=      5-min Rain = 0
KCA1 110644Z 02015KT 11/M02 A3004 RMK A01 T01111016  RH  041%=      5-min Rain = 0
KCA1 110645Z 01013KT 11/M02 A3004 RMK A01 T01111016  RH  041%=      5-min Rain = 0
KCA1 110646Z 02013KT 11/M02 A3004 RMK A01 T01111016  RH  041%=      5-min Rain = 0
KCA1 110647Z 02013KT 11/M02 A3004 RMK A01 T01101016  RH  041%=      5-min Rain = 0
KCA1 110648Z 02011KT 11/M02 A3004 RMK A01 T01101016  RH  042%=      5-min Rain = 0
KCA1 110649Z 02013G18KT 11/M02 A3004 RMK A01 T01101016  RH  042%=      5-min Rain = 0
KCA1 110650Z 02011KT 11/M02 A3004 RMK A01 T01101015  RH  042%=      5-min Rain = 0
KCA1 110651Z 02012KT 11/M02 A3004 RMK A01 T01091015  RH  042%=      5-min Rain = 0
KCA1 110652Z 02012KT 11/M01 A3004 RMK A01 T01091014  RH  042%=      5-min Rain = 0
KCA1 110653Z 02014KT 11/M01 A3004 RMK A01 T01091014  RH  042%=      5-min Rain = 0
KCA1 110654Z 02013KT 11/M01 A3004 RMK A01 T01091014  RH  043%=      5-min Rain = 0
KCA1 110655Z 02012KT 11/M01 A3004 RMK A01 T01091013  RH  043%=      5-min Rain = 0
KCA1 110656Z 02013KT 11/M01 A3004 RMK A01 T01081013  RH  043%=      5-min Rain = 0
KCA1 110657Z 02014KT 11/M01 A3004 RMK A01 T01081013  RH  043%=      5-min Rain = 0
KCA1 110658Z 02013KT 11/M01 A3004 RMK A01 T01081012  RH  043%=      5-min Rain = 0
KCA1 110659Z 02012KT 11/M01 A3004 RMK A01 T01081012  RH  043%=      5-min Rain = 0
KCA1 110700Z 02013KT 11/M01 A3004 RMK A01 T01071013  RH  043%=      5-min Rain = 0
KCA1 110701Z 02011KT 11/M01 A3004 RMK A01 T01071012  RH  043%=      5-min Rain = 0
KCA1 110702Z 02013KT 11/M01 A3004 RMK A01 T01071012  RH  044%=      5-min Rain = 0
KCA1 110703Z 02013KT 11/M01 A3004 RMK A01 T01061012  RH  044%=      5-min Rain = 0
KCA1 110704Z 01011KT 11/M01 A3004 RMK A01 T01061012  RH  044%=      5-min Rain = 0
KCA1 110705Z 02012KT 11/M01 A3005 RMK A01 T01061012  RH  044%=      5-min Rain = 0
KCA1 110706Z 02012KT 11/M01 A3005 RMK A01 T01051012  RH  044%=      5-min Rain = 0
KCA1 110707Z 02012KT 11/M01 A3005 RMK A01 T01051011  RH  044%=      5-min Rain = 0
KCA1 110708Z 01011G16KT 11/M01 A3005 RMK A01 T01051011  RH  044%=      5-min Rain = 0
KCA1 110709Z 02013KT 11/M01 A3005 RMK A01 T01051011  RH  044%=      5-min Rain = 0
KCA1 110710Z 02012KT 11/M01 A3005 RMK A01 T01051011  RH  044%=      5-min Rain = 0
KCA1 110711Z 01012KT 10/M01 A3005 RMK A01 T01041011  RH  045%=      5-min Rain = 0
KCA1 110712Z 01014KT 10/M01 A3005 RMK A01 T01041011  RH  045%=      5-min Rain = 0
KCA1 110713Z 01015KT 10/M01 A3006 RMK A01 T01041011  RH  045%=      5-min Rain = 0
KCA1 110714Z 01012KT 10/M01 A3006 RMK A01 T01041011  RH  045%=      5-min Rain = 0
KCA1 110715Z 01012KT 10/M01 A3006 RMK A01 T01041011  RH  045%=      5-min Rain = 0
KCA1 110716Z 01014KT 10/M01 A3006 RMK A01 T01031011  RH  045%=      5-min Rain = 0
KCA1 110717Z 01011KT 10/M01 A3006 RMK A01 T01031011  RH  045%=      5-min Rain = 0
KCA1 110718Z 02012KT 10/M01 A3006 RMK A01 T01021011  RH  045%=      5-min Rain = 0
KCA1 110719Z 01012KT 10/M01 A3006 RMK A01 T01021011  RH  045%=      5-min Rain = 0
KCA1 110720Z 01013KT 10/M01 A3006 RMK A01 T01021011  RH  045%=      5-min Rain = 0
KCA1 110721Z 01014KT 10/M01 A3006 RMK A01 T01021010  RH  046%=      5-min Rain = 0
KCA1 110722Z 01010KT 10/M01 A3007 RMK A01 T01021011  RH  046%=      5-min Rain = 0
KCA1 110723Z 02012KT 10/M01 A3007 RMK A01 T01021011  RH  046%=      5-min Rain = 0
KCA1 110724Z 01012KT 10/M01 A3007 RMK A01 T01011011  RH  046%=      5-min Rain = 0
KCA1 110725Z 02012KT 10/M01 A3007 RMK A01 T01011011  RH  046%=      5-min Rain = 0
KCA1 110726Z 01015KT 10/M01 A3007 RMK A01 T01001011  RH  046%=      5-min Rain = 0
KCA1 110727Z 01013KT 10/M01 A3007 RMK A01 T01001010  RH  046%=      5-min Rain = 0
KCA1 110728Z 01014KT 10/M01 A3007 RMK A01 T01011010  RH  046%=      5-min Rain = 0
KCA1 110729Z 01015G20KT 10/M01 A3007 RMK A01 T01001010  RH  046%=      5-min Rain = 0
KCA1 110730Z 01014KT 10/M01 A3007 RMK A01 T01001010  RH  046%=      5-min Rain = 0
KCA1 110731Z 01014KT 10/M01 A3007 RMK A01 T01001010  RH  046%=      5-min Rain = 0
KCA1 110732Z 01012KT 10/M01 A3007 RMK A01 T01001010  RH  046%=      5-min Rain = 0
KCA1 110733Z 01013KT 10/M01 A3007 RMK A01 T00991011  RH  046%=      5-min Rain = 0
KCA1 110734Z 01012KT 10/M01 A3007 RMK A01 T00991011  RH  047%=      5-min Rain = 0
KCA1 110735Z 01011KT 10/M01 A3007 RMK A01 T00981010  RH  047%=      5-min Rain = 0
KCA1 110736Z 01013KT 10/M01 A3007 RMK A01 T00981011  RH  047%=      5-min Rain = 0
KCA1 110737Z 02014KT 10/M01 A3008 RMK A01 T00971011  RH  047%=      5-min Rain = 0
KCA1 110738Z 01012KT 10/M01 A3008 RMK A01 T00971010  RH  047%=      5-min Rain = 0
KCA1 110739Z 01013KT 10/M01 A3008 RMK A01 T00971010  RH  047%=      5-min Rain = 0
KCA1 110740Z 01011KT 10/M01 A3008 RMK A01 T00971011  RH  047%=      5-min Rain = 0
KCA1 110741Z 01012KT 10/M01 A3008 RMK A01 T00961011  RH  047%=      5-min Rain = 0
KCA1 110742Z 01013KT 10/M01 A3008 RMK A01 T00961011  RH  047%=      5-min Rain = 0
KCA1 110743Z 01013KT 10/M01 A3008 RMK A01 T00961011  RH  047%=      5-min Rain = 0
KCA1 110744Z 01011KT 10/M01 A3008 RMK A01 T00961011  RH  047%=      5-min Rain = 0
KCA1 110745Z 01011KT 10/M01 A3008 RMK A01 T00961011  RH  047%=      5-min Rain = 0
KCA1 110746Z 01010KT 10/M01 A3008 RMK A01 T00951011  RH  047%=      5-min Rain = 0
KCA1 110747Z 01009KT 10/M01 A3008 RMK A01 T00951011  RH  048%=      5-min Rain = 0
KCA1 110748Z 01012KT 09/M01 A3008 RMK A01 T00941012  RH  048%=      5-min Rain = 0
KCA1 110749Z 01011KT 09/M01 A3008 RMK A01 T00941011  RH  048%=      5-min Rain = 0
KCA1 110750Z 01009KT 09/M01 A3008 RMK A01 T00941011  RH  048%=      5-min Rain = 0
KCA1 110751Z 01010KT 09/M01 A3008 RMK A01 T00931012  RH  048%=      5-min Rain = 0
KCA1 110752Z 01010KT 09/M01 A3008 RMK A01 T00931012  RH  048%=      5-min Rain = 0
KCA1 110753Z 01009KT 09/M01 A3008 RMK A01 T00921012  RH  048%=      5-min Rain = 0
KCA1 110754Z 01011KT 09/M01 A3008 RMK A01 T00921012  RH  048%=      5-min Rain = 0
KCA1 110755Z 01009KT 09/M01 A3008 RMK A01 T00921012  RH  048%=      5-min Rain = 0
KCA1 110756Z 01009KT 09/M01 A3009 RMK A01 T00921012  RH  048%=      5-min Rain = 0
KCA1 110757Z 01011KT 09/M01 A3009 RMK A01 T00921013  RH  048%=      5-min Rain = 0
KCA1 110758Z 01010KT 09/M01 A3009 RMK A01 T00921013  RH  048%=      5-min Rain = 0
KCA1 110759Z 00010KT 09/M01 A3009 RMK A01 T00921012  RH  048%=      5-min Rain = 0
KCA1 110800Z 01010KT 09/M01 A3009 RMK A01 T00921013  RH  048%=      5-min Rain = 0
KCA1 110801Z 01010KT 09/M01 A3009 RMK A01 T00921013  RH  048%=      5-min Rain = 0
KCA1 110802Z 01010KT 09/M01 A3009 RMK A01 T00921013  RH  048%=      5-min Rain = 0
KCA1 110803Z 00010KT 09/M01 A3009 RMK A01 T00911013  RH  048%=      5-min Rain = 0
KCA1 110804Z 01009KT 09/M01 A3009 RMK A01 T00911014  RH  048%=      5-min Rain = 0
KCA1 110805Z 01008KT 09/M01 A3009 RMK A01 T00911014  RH  048%=      5-min Rain = 0
KCA1 110806Z 00009KT 09/M02 A3009 RMK A01 T00901015  RH  048%=      5-min Rain = 0
KCA1 110807Z 01009KT 09/M02 A3009 RMK A01 T00891015  RH  048%=      5-min Rain = 0
KCA1 110808Z 01008KT 09/M02 A3009 RMK A01 T00891015  RH  048%=      5-min Rain = 0
KCA1 110809Z 00009KT 09/M02 A3009 RMK A01 T00891015  RH  048%=      5-min Rain = 0
KCA1 110810Z 01009KT 09/M02 A3009 RMK A01 T00881015  RH  048%=      5-min Rain = 0
KCA1 110811Z 01008KT 09/M02 A3009 RMK A01 T00881015  RH  048%=      5-min Rain = 0
KCA1 110812Z 00010KT 09/M02 A3009 RMK A01 T00881016  RH  048%=      5-min Rain = 0
KCA1 110813Z 01010KT 09/M02 A3009 RMK A01 T00871016  RH  048%=      5-min Rain = 0
KCA1 110814Z 00009KT 09/M02 A3009 RMK A01 T00881016  RH  048%=      5-min Rain = 0
KCA1 110815Z 00008KT 09/M02 A3009 RMK A01 T00881016  RH  048%=      5-min Rain = 0
KCA1 110816Z 36009KT 09/M02 A301 RMK A01 T00871017  RH  048%=      5-min Rain = 0
KCA1 110817Z 36009KT 09/M02 A301 RMK A01 T00871016  RH  048%=      5-min Rain = 0
KCA1 110818Z 00008KT 09/M02 A301 RMK A01 T00871017  RH  048%=      5-min Rain = 0
KCA1 110819Z 00006KT 09/M02 A301 RMK A01 T00871017  RH  048%=      5-min Rain = 0
KCA1 110820Z 36007KT 09/M02 A301 RMK A01 T00861018  RH  048%=      5-min Rain = 0
KCA1 110821Z 36008KT 09/M02 A301 RMK A01 T00851018  RH  048%=      5-min Rain = 0
KCA1 110822Z 35007KT 09/M02 A301 RMK A01 T00851017  RH  048%=      5-min Rain = 0
KCA1 110823Z 36008KT 09/M02 A301 RMK A01 T00851018  RH  048%=      5-min Rain = 0
KCA1 110824Z 35007KT 09/M02 A301 RMK A01 T00851018  RH  048%=      5-min Rain = 0
KCA1 110825Z 35008KT 09/M02 A301 RMK A01 T00851018  RH  048%=      5-min Rain = 0
KCA1 110826Z 35008KT 08/M02 A301 RMK A01 T00841018  RH  048%=      5-min Rain = 0
KCA1 110827Z 36009KT 08/M02 A301 RMK A01 T00841019  RH  048%=      5-min Rain = 0
KCA1 110828Z 35007KT 08/M02 A301 RMK A01 T00841019  RH  048%=      5-min Rain = 0
KCA1 110829Z 35007KT 08/M02 A301 RMK A01 T00841019  RH  048%=      5-min Rain = 0
KCA1 110830Z 35008KT 08/M02 A301 RMK A01 T00831019  RH  048%=      5-min Rain = 0
KCA1 110831Z 35009KT 08/M02 A301 RMK A01 T00831019  RH  049%=      5-min Rain = 0
KCA1 110832Z 35007KT 08/M02 A301 RMK A01 T00831019  RH  049%=      5-min Rain = 0
KCA1 110833Z 35010KT 08/M02 A301 RMK A01 T00821020  RH  049%=      5-min Rain = 0
KCA1 110834Z 35010KT 08/M02 A301 RMK A01 T00821020  RH  049%=      5-min Rain = 0
KCA1 110835Z 35013KT 08/M02 A301 RMK A01 T00831020  RH  048%=      5-min Rain = 0
KCA1 110836Z 35012KT 08/M02 A301 RMK A01 T00831020  RH  048%=      5-min Rain = 0
KCA1 110837Z 36012KT 08/M02 A301 RMK A01 T00831021  RH  048%=      5-min Rain = 0
KCA1 110838Z 36012KT 08/M02 A301 RMK A01 T00831021  RH  048%=      5-min Rain = 0
KCA1 110839Z 36013KT 08/M02 A301 RMK A01 T00831021  RH  048%=      5-min Rain = 0
KCA1 110840Z 36012KT 08/M02 A301 RMK A01 T00831022  RH  048%=      5-min Rain = 0
KCA1 110841Z 36010KT 08/M02 A301 RMK A01 T00831022  RH  048%=      5-min Rain = 0
KCA1 110842Z 36010KT 08/M02 A301 RMK A01 T00831022  RH  048%=      5-min Rain = 0
KCA1 110843Z 35010KT 08/M02 A301 RMK A01 T00821023  RH  048%=      5-min Rain = 0
KCA1 110844Z 35011KT 08/M02 A3011 RMK A01 T00811023  RH  048%=      5-min Rain = 0
KCA1 110845Z 36011KT 08/M02 A3011 RMK A01 T00811022  RH  048%=      5-min Rain = 0
KCA1 110846Z 36012KT 08/M02 A3011 RMK A01 T00811022  RH  048%=      5-min Rain = 0
KCA1 110847Z 35010KT 08/M02 A3011 RMK A01 T00811022  RH  048%=      5-min Rain = 0
KCA1 110848Z 35010KT 08/M02 A3011 RMK A01 T00811023  RH  048%=      5-min Rain = 0
KCA1 110849Z 35009KT 08/M02 A3011 RMK A01 T00801023  RH  048%=      5-min Rain = 0
KCA1 110850Z 35009KT 08/M02 A3011 RMK A01 T00801023  RH  048%=      5-min Rain = 0
KCA1 110851Z 35009KT 08/M02 A3011 RMK A01 T00791023  RH  048%=      5-min Rain = 0
KCA1 110852Z 35008KT 08/M02 A3011 RMK A01 T00791023  RH  048%=      5-min Rain = 0
KCA1 110853Z 34008KT 08/M02 A3011 RMK A01 T00791024  RH  048%=      5-min Rain = 0
KCA1 110854Z 34006KT 08/M03 A3011 RMK A01 T00781025  RH  048%=      5-min Rain = 0
KCA1 110855Z 34007KT 08/M03 A3011 RMK A01 T00771025  RH  049%=      5-min Rain = 0
KCA1 110856Z 34006KT 08/M03 A3011 RMK A01 T00761025  RH  049%=      5-min Rain = 0
KCA1 110857Z 34007KT 08/M03 A3011 RMK A01 T00751025  RH  049%=      5-min Rain = 0
KCA1 110858Z 34007KT 08/M03 A3011 RMK A01 T00751026  RH  049%=      5-min Rain = 0
KCA1 110859Z 34007KT 08/M03 A3011 RMK A01 T00751026  RH  049%=      5-min Rain = 0
KCA1 110900Z 35008KT 07/M03 A3011 RMK A01 T00741026  RH  049%=      5-min Rain = 0
KCA1 110901Z 35007KT 07/M03 A3011 RMK A01 T00741026  RH  049%=      5-min Rain = 0
KCA1 110902Z 35012KT 07/M03 A3011 RMK A01 T00741026  RH  049%=      5-min Rain = 0
KCA1 110903Z 35010KT 08/M03 A3011 RMK A01 T00751025  RH  049%=      5-min Rain = 0
KCA1 110904Z 36011KT 08/M03 A3011 RMK A01 T00761025  RH  049%=      5-min Rain = 0
KCA1 110905Z 35011KT 08/M03 A3011 RMK A01 T00761025  RH  049%=      5-min Rain = 0
KCA1 110906Z 35011KT 08/M03 A3012 RMK A01 T00761025  RH  049%=      5-min Rain = 0
KCA1 110907Z 35011KT 08/M03 A3012 RMK A01 T00761025  RH  049%=      5-min Rain = 0
KCA1 110908Z 35009KT 08/M03 A3012 RMK A01 T00761025  RH  049%=      5-min Rain = 0
KCA1 110909Z 35009KT 08/M03 A3012 RMK A01 T00751025  RH  049%=      5-min Rain = 0
KCA1 110910Z 35010KT 08/M03 A3012 RMK A01 T00751025  RH  049%=      5-min Rain = 0
KCA1 110911Z 34010G15KT 07/M03 A3012 RMK A01 T00741025  RH  049%=      5-min Rain = 0
KCA1 110912Z 36014KT 07/M03 A3012 RMK A01 T00741027  RH  049%=      5-min Rain = 0
KCA1 110913Z 35014KT 08/M03 A3012 RMK A01 T00761029  RH  047%=      5-min Rain = 0
KCA1 110914Z 36016KT 08/M03 A3012 RMK A01 T00771031  RH  046%=      5-min Rain = 0
KCA1 110915Z 36015KT 08/M03 A3012 RMK A01 T00771034  RH  045%=      5-min Rain = 0
KCA1 110916Z 36014KT 08/M04 A3012 RMK A01 T00771036  RH  045%=      5-min Rain = 0
KCA1 110917Z 35015KT 08/M04 A3012 RMK A01 T00771037  RH  044%=      5-min Rain = 0
KCA1 110918Z 36016KT 08/M04 A3012 RMK A01 T00771039  RH  043%=      5-min Rain = 0
KCA1 110919Z 36017G22KT 08/M04 A3012 RMK A01 T00771041  RH  043%=      5-min Rain = 0
KCA1 110920Z 35016G22KT 08/M04 A3012 RMK A01 T00771043  RH  042%=      5-min Rain = 0
KCA1 110921Z 35016KT 08/M04 A3012 RMK A01 T00781043  RH  042%=      5-min Rain = 0
KCA1 110922Z 35014G19KT 08/M04 A3012 RMK A01 T00771044  RH  042%=      5-min Rain = 0
KCA1 110923Z 35017G22KT 08/M05 A3012 RMK A01 T00761046  RH  042%=      5-min Rain = 0
KCA1 110924Z 35017KT 08/M05 A3012 RMK A01 T00761048  RH  041%=      5-min Rain = 0
KCA1 110925Z 35018KT 08/M05 A3012 RMK A01 T00761048  RH  041%=      5-min Rain = 0
KCA1 110926Z 35016KT 08/M05 A3012 RMK A01 T00761049  RH  041%=      5-min Rain = 0
KCA1 110927Z 36015KT 08/M05 A3013 RMK A01 T00761050  RH  040%=      5-min Rain = 0
KCA1 110928Z 35017G23KT 08/M05 A3013 RMK A01 T00751051  RH  040%=      5-min Rain = 0
KCA1 110929Z 35016KT 08/M05 A3013 RMK A01 T00751051  RH  040%=      5-min Rain = 0
KCA1 110930Z 35021KT 07/M05 A3013 RMK A01 T00741052  RH  040%=      5-min Rain = 0
KCA1 110931Z 35019KT 07/M05 A3013 RMK A01 T00741053  RH  040%=      5-min Rain = 0
KCA1 110932Z 35019KT 07/M05 A3013 RMK A01 T00731053  RH  040%=      5-min Rain = 0
KCA1 110933Z 35015KT 07/M05 A3013 RMK A01 T00731054  RH  040%=      5-min Rain = 0
KCA1 110934Z 34021G26KT 07/M05 A3013 RMK A01 T00721054  RH  040%=      5-min Rain = 0
KCA1 110935Z 34019KT 07/M05 A3013 RMK A01 T00721053  RH  041%=      5-min Rain = 0
KCA1 110936Z 35017KT 07/M05 A3013 RMK A01 T00711054  RH  041%=      5-min Rain = 0
KCA1 110937Z 35016KT 07/M05 A3013 RMK A01 T00711054  RH  041%=      5-min Rain = 0
KCA1 110938Z 35014G19KT 07/M05 A3013 RMK A01 T00701054  RH  041%=      5-min Rain = 0
KCA1 110939Z 35013G18KT 07/M05 A3013 RMK A01 T00691054  RH  041%=      5-min Rain = 0
KCA1 110940Z 35016G21KT 07/M05 A3014 RMK A01 T00691054  RH  041%=      5-min Rain = 0
KCA1 110941Z 35017G22KT 07/M05 A3014 RMK A01 T00681054  RH  041%=      5-min Rain = 0
KCA1 110942Z 34018G23KT 07/M05 A3014 RMK A01 T00681054  RH  041%=      5-min Rain = 0
KCA1 110943Z 36019KT 07/M05 A3014 RMK A01 T00681054  RH  041%=      5-min Rain = 0
KCA1 110944Z 35018KT 07/M05 A3014 RMK A01 T00681054  RH  041%=      5-min Rain = 0
KCA1 110945Z 35014KT 07/M05 A3014 RMK A01 T00681054  RH  041%=      5-min Rain = 0
KCA1 110946Z 35016G21KT 07/M05 A3014 RMK A01 T00671054  RH  042%=      5-min Rain = 0
KCA1 110947Z 35014KT 07/M06 A3014 RMK A01 T00661055  RH  042%=      5-min Rain = 0
KCA1 110948Z 35017G23KT 07/M05 A3014 RMK A01 T00661054  RH  042%=      5-min Rain = 0
KCA1 110949Z 35018KT 07/M05 A3014 RMK A01 T00661054  RH  042%=      5-min Rain = 0
KCA1 110950Z 35018KT 07/M05 A3014 RMK A01 T00661054  RH  042%=      5-min Rain = 0
KCA1 110951Z 35017KT 07/M05 A3014 RMK A01 T00651054  RH  042%=      5-min Rain = 0
KCA1 110952Z 35018KT 07/M05 A3014 RMK A01 T00651054  RH  042%=      5-min Rain = 0
KCA1 110953Z 35016KT 07/M05 A3014 RMK A01 T00651054  RH  042%=      5-min Rain = 0
KCA1 110954Z 34014KT 06/M05 A3014 RMK A01 T00641054  RH  042%=      5-min Rain = 0
KCA1 110955Z 35016KT 06/M06 A3014 RMK A01 T00641055  RH  042%=      5-min Rain = 0
KCA1 110956Z 34014KT 06/M06 A3014 RMK A01 T00631055  RH  043%=      5-min Rain = 0
KCA1 110957Z 35013KT 06/M06 A3014 RMK A01 T00631055  RH  043%=      5-min Rain = 0
KCA1 110958Z 34014KT 06/M06 A3014 RMK A01 T00631055  RH  043%=      5-min Rain = 0
KCA1 110959Z 35014KT 06/M05 A3014 RMK A01 T00621054  RH  043%=      5-min Rain = 0
KCA1 111000Z 34011KT 06/M06 A3014 RMK A01 T00621055  RH  043%=      5-min Rain = 0
KCA1 111001Z 34013KT 06/M06 A3014 RMK A01 T00611055  RH  043%=      5-min Rain = 0
KCA1 111002Z 36014KT 06/M06 A3014 RMK A01 T00601055  RH  044%=      5-min Rain = 0
KCA1 111003Z 35013KT 06/M05 A3015 RMK A01 T00601054  RH  044%=      5-min Rain = 0
KCA1 111004Z 35012KT 06/M05 A3015 RMK A01 T00601054  RH  044%=      5-min Rain = 0
KCA1 111005Z 35013KT 06/M05 A3015 RMK A01 T00591054  RH  044%=      5-min Rain = 0
KCA1 111006Z 35010KT 06/M05 A3015 RMK A01 T00591054  RH  044%=      5-min Rain = 0
KCA1 111007Z 35012KT 06/M05 A3015 RMK A01 T00581054  RH  044%=      5-min Rain = 0
KCA1 111008Z 35013KT 06/M05 A3015 RMK A01 T00581052  RH  045%=      5-min Rain = 0
KCA1 111009Z 34013G18KT 06/M05 A3014 RMK A01 T00581051  RH  046%=      5-min Rain = 0
KCA1 111010Z 36014KT 06/M05 A3015 RMK A01 T00581049  RH  046%=      5-min Rain = 0
KCA1 111011Z 36014KT 06/M05 A3015 RMK A01 T00571049  RH  046%=      5-min Rain = 0
KCA1 111012Z 36014KT 06/M05 A3015 RMK A01 T00571049  RH  047%=      5-min Rain = 0
KCA1 111013Z 35012KT 06/M05 A3015 RMK A01 T00571048  RH  047%=      5-min Rain = 0
KCA1 111014Z 36014KT 06/M05 A3015 RMK A01 T00561049  RH  047%=      5-min Rain = 0
KCA1 111015Z 36014KT 06/M05 A3015 RMK A01 T00561047  RH  048%=      5-min Rain = 0
KCA1 111016Z 35014KT 06/M05 A3015 RMK A01 T00551046  RH  048%=      5-min Rain = 0
KCA1 111017Z 35014KT 06/M05 A3015 RMK A01 T00551046  RH  048%=      5-min Rain = 0
KCA1 111018Z 35015KT 06/M05 A3015 RMK A01 T00551045  RH  048%=      5-min Rain = 0
KCA1 111019Z 34011KT 06/M05 A3015 RMK A01 T00551046  RH  048%=      5-min Rain = 0
KCA1 111020Z 35011KT 05/M05 A3015 RMK A01 T00541048  RH  048%=      5-min Rain = 0
KCA1 111021Z 34012KT 05/M05 A3015 RMK A01 T00531048  RH  048%=      5-min Rain = 0
KCA1 111022Z 35016G22KT 05/M05 A3015 RMK A01 T00531047  RH  049%=      5-min Rain = 0
KCA1 111023Z 36014KT 05/M04 A3015 RMK A01 T00531044  RH  050%=      5-min Rain = 0
KCA1 111024Z 35014KT 05/M04 A3015 RMK A01 T00531043  RH  050%=      5-min Rain = 0
KCA1 111025Z 00016KT 05/M04 A3015 RMK A01 T00521042  RH  050%=      5-min Rain = 0
KCA1 111026Z 35016KT 05/M04 A3015 RMK A01 T00521039  RH  052%=      5-min Rain = 0
KCA1 111027Z 35019KT 05/M04 A3015 RMK A01 T00521037  RH  053%=      5-min Rain = 0
KCA1 111028Z 00017KT 05/M04 A3015 RMK A01 T00521035  RH  053%=      5-min Rain = 0
KCA1 111029Z 36015KT 05/M03 A3015 RMK A01 T00521034  RH  054%=      5-min Rain = 0
KCA1 111030Z 35017KT 05/M03 A3015 RMK A01 T00511034  RH  054%=      5-min Rain = 0
KCA1 111031Z 35015KT 05/M03 A3015 RMK A01 T00511034  RH  054%=      5-min Rain = 0
KCA1 111032Z 36019KT 05/M03 A3015 RMK A01 T00501033  RH  055%=      5-min Rain = 0
KCA1 111033Z 36016KT 05/M03 A3015 RMK A01 T00501031  RH  056%=      5-min Rain = 0
KCA1 111034Z 36013G18KT 05/M03 A3016 RMK A01 T00501031  RH  056%=      5-min Rain = 0
KCA1 111035Z 36018KT 05/M03 A3016 RMK A01 T00501030  RH  056%=      5-min Rain = 0
KCA1 111036Z 36014G20KT 05/M03 A3016 RMK A01 T00491030  RH  057%=      5-min Rain = 0
KCA1 111037Z 36017G22KT 05/M03 A3016 RMK A01 T00491030  RH  057%=      5-min Rain = 0
KCA1 111038Z 00016KT 05/M03 A3016 RMK A01 T00491029  RH  057%=      5-min Rain = 0
KCA1 111039Z 36016KT 05/M03 A3016 RMK A01 T00481030  RH  057%=      5-min Rain = 0
KCA1 111040Z 36016KT 05/M03 A3016 RMK A01 T00481029  RH  057%=      5-min Rain = 0
KCA1 111041Z 35014KT 05/M03 A3016 RMK A01 T00481029  RH  057%=      5-min Rain = 0
KCA1 111042Z 35012G19KT 05/M03 A3016 RMK A01 T00481030  RH  057%=      5-min Rain = 0
KCA1 111043Z 35012G17KT 05/M03 A3016 RMK A01 T00481030  RH  057%=      5-min Rain = 0
KCA1 111044Z 35010KT 05/M03 A3017 RMK A01 T00471031  RH  057%=      5-min Rain = 0
KCA1 111045Z 35009KT 05/M03 A3017 RMK A01 T00461032  RH  057%=      5-min Rain = 0
KCA1 111046Z 35009KT 05/M03 A3017 RMK A01 T00461033  RH  057%=      5-min Rain = 0
KCA1 111047Z 34010KT 05/M03 A3017 RMK A01 T00451034  RH  057%=      5-min Rain = 0
KCA1 111048Z 35010KT 04/M04 A3017 RMK A01 T00441035  RH  057%=      5-min Rain = 0
KCA1 111049Z 35015KT 04/M04 A3017 RMK A01 T00441035  RH  057%=      5-min Rain = 0
KCA1 111050Z 36011G16KT 04/M04 A3017 RMK A01 T00431035  RH  057%=      5-min Rain = 0
KCA1 111051Z 35014G19KT 04/M04 A3017 RMK A01 T00431035  RH  057%=      5-min Rain = 0
KCA1 111052Z 35013KT 04/M04 A3017 RMK A01 T00431035  RH  057%=      5-min Rain = 0
KCA1 111053Z 36013KT 04/M04 A3017 RMK A01 T00421035  RH  057%=      5-min Rain = 0
KCA1 111054Z 36013KT 04/M04 A3017 RMK A01 T00421035  RH  057%=      5-min Rain = 0
KCA1 111055Z 36013KT 04/M04 A3017 RMK A01 T00421035  RH  057%=      5-min Rain = 0
KCA1 111056Z 36013KT 04/M04 A3017 RMK A01 T00411035  RH  058%=      5-min Rain = 0
KCA1 111057Z 36014G19KT 04/M04 A3017 RMK A01 T00411035  RH  058%=      5-min Rain = 0
KCA1 111058Z 36017KT 04/M04 A3017 RMK A01 T00401035  RH  058%=      5-min Rain = 0
KCA1 111059Z 36013KT 04/M04 A3017 RMK A01 T00411035  RH  058%=      5-min Rain = 0
KCA1 111100Z 35014KT 04/M04 A3017 RMK A01 T00401035  RH  058%=      5-min Rain = 0
KCA1 111101Z 36014KT 04/M03 A3017 RMK A01 T00401034  RH  058%=      5-min Rain = 0
KCA1 111102Z 35013KT 04/M03 A3017 RMK A01 T00401034  RH  059%=      5-min Rain = 0
KCA1 111103Z 35012KT 04/M03 A3017 RMK A01 T00401034  RH  059%=      5-min Rain = 0
KCA1 111104Z 36012KT 04/M03 A3017 RMK A01 T00391034  RH  059%=      5-min Rain = 0
KCA1 111105Z 36011KT 04/M03 A3017 RMK A01 T00391034  RH  059%=      5-min Rain = 0
KCA1 111106Z 36014KT 04/M03 A3017 RMK A01 T00391033  RH  059%=      5-min Rain = 0
KCA1 111107Z 00010KT 04/M03 A3017 RMK A01 T00391033  RH  060%=      5-min Rain = 0
KCA1 111108Z 35012KT 04/M03 A3017 RMK A01 T00381033  RH  060%=      5-min Rain = 0
KCA1 111109Z 36012KT 04/M03 A3017 RMK A01 T00381032  RH  060%=      5-min Rain = 0
KCA1 111110Z 36010KT 04/M03 A3017 RMK A01 T00381032  RH  060%=      5-min Rain = 0
KCA1 111111Z 36011KT 04/M03 A3017 RMK A01 T00381032  RH  060%=      5-min Rain = 0
KCA1 111112Z 36010KT 04/M03 A3017 RMK A01 T00381032  RH  060%=      5-min Rain = 0
KCA1 111113Z 36011KT 04/M03 A3018 RMK A01 T00371032  RH  060%=      5-min Rain = 0
KCA1 111114Z 35010KT 04/M03 A3018 RMK A01 T00371032  RH  061%=      5-min Rain = 0
KCA1 111115Z 35011KT 04/M03 A3018 RMK A01 T00371032  RH  061%=      5-min Rain = 0
KCA1 111116Z 35013KT 04/M03 A3018 RMK A01 T00371032  RH  061%=      5-min Rain = 0
KCA1 111117Z 36011KT 04/M03 A3018 RMK A01 T00371031  RH  061%=      5-min Rain = 0
KCA1 111118Z 35010KT 04/M03 A3018 RMK A01 T00371032  RH  061%=      5-min Rain = 0
KCA1 111119Z 36011KT 04/M03 A3018 RMK A01 T00371032  RH  061%=      5-min Rain = 0
KCA1 111120Z 36011KT 04/M03 A3018 RMK A01 T00361032  RH  061%=      5-min Rain = 0
KCA1 111121Z 35011KT 04/M03 A3018 RMK A01 T00361032  RH  061%=      5-min Rain = 0
KCA1 111122Z 00011KT 04/M03 A3018 RMK A01 T00361032  RH  061%=      5-min Rain = 0
KCA1 111123Z 35011KT 04/M03 A3018 RMK A01 T00361032  RH  061%=      5-min Rain = 0
KCA1 111124Z 36012KT 04/M03 A3018 RMK A01 T00351033  RH  061%=      5-min Rain = 0
KCA1 111125Z 36015KT 04/M03 A3018 RMK A01 T00351033  RH  061%=      5-min Rain = 0
KCA1 111126Z 36013KT 04/M03 A3018 RMK A01 T00351032  RH  061%=      5-min Rain = 0
KCA1 111127Z 35010KT 04/M03 A3018 RMK A01 T00351033  RH  061%=      5-min Rain = 0
KCA1 111128Z 35013KT 03/M03 A3018 RMK A01 T00341033  RH  061%=      5-min Rain = 0
KCA1 111129Z 35012KT 03/M03 A3018 RMK A01 T00341033  RH  062%=      5-min Rain = 0
KCA1 111130Z 36012KT 03/M03 A3018 RMK A01 T00341033  RH  062%=      5-min Rain = 0
KCA1 111131Z 35009KT 03/M03 A3018 RMK A01 T00341033  RH  061%=      5-min Rain = 0
KCA1 111132Z 35011KT 03/M03 A3018 RMK A01 T00331034  RH  062%=      5-min Rain = 0
KCA1 111133Z 35009KT 03/M03 A3018 RMK A01 T00331034  RH  062%=      5-min Rain = 0
KCA1 111134Z 35014KT 03/M03 A3019 RMK A01 T00321034  RH  062%=      5-min Rain = 0
KCA1 111135Z 35012KT 03/M04 A3019 RMK A01 T00321035  RH  062%=      5-min Rain = 0
KCA1 111136Z 35012KT 03/M04 A3019 RMK A01 T00321035  RH  061%=      5-min Rain = 0
KCA1 111137Z 35010KT 03/M04 A3019 RMK A01 T00321035  RH  061%=      5-min Rain = 0
KCA1 111138Z 35012KT 03/M04 A3019 RMK A01 T00321036  RH  061%=      5-min Rain = 0
KCA1 111139Z 35011KT 03/M04 A3019 RMK A01 T00311037  RH  061%=      5-min Rain = 0
KCA1 111140Z 35010KT 03/M04 A3019 RMK A01 T00311037  RH  061%=      5-min Rain = 0
KCA1 111141Z 35010KT 03/M04 A3019 RMK A01 T00311038  RH  061%=      5-min Rain = 0
KCA1 111142Z 35009KT 03/M04 A3019 RMK A01 T00301038  RH  061%=      5-min Rain = 0
KCA1 111143Z 35010KT 03/M04 A3019 RMK A01 T00291039  RH  061%=      5-min Rain = 0
KCA1 111144Z 35009KT 03/M04 A3019 RMK A01 T00291039  RH  061%=      5-min Rain = 0
KCA1 111145Z 34012KT 03/M04 A3019 RMK A01 T00281039  RH  061%=      5-min Rain = 0
KCA1 111146Z 34012KT 03/M04 A3019 RMK A01 T00281040  RH  061%=      5-min Rain = 0
KCA1 111147Z 34009KT 03/M04 A3019 RMK A01 T00291041  RH  060%=      5-min Rain = 0
KCA1 111148Z 35009KT 03/M04 A3019 RMK A01 T00291041  RH  060%=      5-min Rain = 0
KCA1 111149Z 34011G16KT 03/M04 A3019 RMK A01 T00281042  RH  060%=      5-min Rain = 0
KCA1 111150Z 35015KT 03/M04 A3019 RMK A01 T00281043  RH  060%=      5-min Rain = 0
KCA1 111151Z 35013KT 03/M04 A3019 RMK A01 T00281044  RH  059%=      5-min Rain = 0
KCA1 111152Z 35009KT 03/M04 A302 RMK A01 T00281044  RH  059%=      5-min Rain = 0
KCA1 111153Z 35010KT 03/M04 A302 RMK A01 T00281044  RH  059%=      5-min Rain = 0
KCA1 111154Z 35011KT 03/M05 A302 RMK A01 T00271045  RH  059%=      5-min Rain = 0
KCA1 111155Z 34010KT 03/M05 A302 RMK A01 T00271045  RH  059%=      5-min Rain = 0
KCA1 111156Z 35011KT 03/M05 A302 RMK A01 T00261046  RH  059%=      5-min Rain = 0
KCA1 111157Z 35011KT 03/M05 A302 RMK A01 T00251046  RH  059%=      5-min Rain = 0
KCA1 111158Z 34011KT 03/M05 A302 RMK A01 T00261047  RH  059%=      5-min Rain = 0
KCA1 111159Z 35011KT 03/M05 A302 RMK A01 T00261047  RH  059%=      5-min Rain = 0
KCA1 111200Z 36010KT 03/M05 A302 RMK A01 T00251048  RH  058%=      5-min Rain = 0
KCA1 111201Z 35012KT 03/M05 A302 RMK A01 T00251048  RH  058%=      5-min Rain = 0
KCA1 111202Z 36012KT 03/M05 A302 RMK A01 T00251049  RH  058%=      5-min Rain = 0
KCA1 111203Z 35011KT 03/M05 A302 RMK A01 T00251050  RH  058%=      5-min Rain = 0
KCA1 111204Z 36013KT 03/M05 A302 RMK A01 T00251052  RH  057%=      5-min Rain = 0
KCA1 111205Z 36015KT 03/M05 A302 RMK A01 T00251053  RH  057%=      5-min Rain = 0
KCA1 111206Z 36013KT 03/M05 A302 RMK A01 T00251054  RH  056%=      5-min Rain = 0
KCA1 111207Z 35012KT 03/M06 A302 RMK A01 T00251055  RH  056%=      5-min Rain = 0
KCA1 111208Z 35014KT 02/M06 A302 RMK A01 T00241055  RH  056%=      5-min Rain = 0
KCA1 111209Z 35012KT 02/M06 A302 RMK A01 T00241056  RH  056%=      5-min Rain = 0
KCA1 111210Z 35012KT 02/M06 A302 RMK A01 T00241056  RH  056%=      5-min Rain = 0
KCA1 111211Z 35011KT 02/M06 A302 RMK A01 T00231056  RH  056%=      5-min Rain = 0
KCA1 111212Z 35013KT 02/M06 A302 RMK A01 T00231056  RH  056%=      5-min Rain = 0
KCA1 111213Z 35011KT 02/M06 A3021 RMK A01 T00231056  RH  056%=      5-min Rain = 0
KCA1 111214Z 35011KT 02/M06 A3021 RMK A01 T00231056  RH  056%=      5-min Rain = 0
KCA1 111215Z 34012G17KT 02/M06 A3021 RMK A01 T00221056  RH  056%=      5-min Rain = 0
KCA1 111216Z 35012KT 02/M06 A3021 RMK A01 T00221056  RH  056%=      5-min Rain = 0
KCA1 111217Z 35014KT 02/M06 A3021 RMK A01 T00221056  RH  056%=      5-min Rain = 0
KCA1 111218Z 35014KT 02/M06 A3021 RMK A01 T00221056  RH  056%=      5-min Rain = 0
KCA1 111219Z 35014KT 02/M06 A3021 RMK A01 T00221056  RH  056%=      5-min Rain = 0
KCA1 111220Z 35011KT 02/M06 A3021 RMK A01 T00221057  RH  056%=      5-min Rain = 0
KCA1 111221Z 35013KT 02/M06 A3021 RMK A01 T00221057  RH  056%=      5-min Rain = 0
KCA1 111222Z 35013KT 02/M06 A3021 RMK A01 T00221057  RH  056%=      5-min Rain = 0
KCA1 111223Z 35014G19KT 02/M06 A3021 RMK A01 T00221057  RH  056%=      5-min Rain = 0
KCA1 111224Z 35014KT 02/M06 A3021 RMK A01 T00221057  RH  056%=      5-min Rain = 0
KCA1 111225Z 35012KT 02/M06 A3022 RMK A01 T00221058  RH  056%=      5-min Rain = 0
KCA1 111226Z 35013KT 02/M06 A3022 RMK A01 T00221058  RH  056%=      5-min Rain = 0
KCA1 111227Z 35016KT 02/M06 A3022 RMK A01 T00211058  RH  056%=      5-min Rain = 0
KCA1 111228Z 35013KT 02/M06 A3022 RMK A01 T00211059  RH  055%=      5-min Rain = 0
KCA1 111229Z 35013KT 02/M06 A3022 RMK A01 T00211059  RH  055%=      5-min Rain = 0
KCA1 111230Z 36011KT 02/M06 A3022 RMK A01 T00211059  RH  055%=      5-min Rain = 0
KCA1 111231Z 35013KT 02/M06 A3022 RMK A01 T00201059  RH  055%=      5-min Rain = 0
KCA1 111232Z 35013KT 02/M06 A3022 RMK A01 T00201059  RH  056%=      5-min Rain = 0
KCA1 111233Z 35011KT 02/M06 A3022 RMK A01 T00201060  RH  055%=      5-min Rain = 0
KCA1 111234Z 35010KT 02/M06 A3022 RMK A01 T00201060  RH  055%=      5-min Rain = 0
KCA1 111235Z 34012KT 02/M06 A3022 RMK A01 T00191060  RH  056%=      5-min Rain = 0
KCA1 111236Z 35011KT 02/M06 A3022 RMK A01 T00191060  RH  056%=      5-min Rain = 0
KCA1 111237Z 35012KT 02/M06 A3022 RMK A01 T00191060  RH  056%=      5-min Rain = 0
KCA1 111238Z 35012KT 02/M06 A3022 RMK A01 T00191060  RH  056%=      5-min Rain = 0
KCA1 111239Z 34010KT 02/M06 A3022 RMK A01 T00201060  RH  055%=      5-min Rain = 0
KCA1 111240Z 34012KT 02/M06 A3022 RMK A01 T00191061  RH  055%=      5-min Rain = 0
KCA1 111241Z 35010KT 02/M06 A3022 RMK A01 T00191060  RH  056%=      5-min Rain = 0
KCA1 111242Z 34008KT 02/M06 A3022 RMK A01 T00181060  RH  056%=      5-min Rain = 0
KCA1 111243Z 34008KT 02/M06 A3022 RMK A01 T00181060  RH  056%=      5-min Rain = 0
KCA1 111244Z 34008KT 02/M06 A3022 RMK A01 T00171060  RH  056%=      5-min Rain = 0
KCA1 111245Z 35010KT 02/M06 A3022 RMK A01 T00161061  RH  057%=      5-min Rain = 0
KCA1 111246Z 34008KT 02/M06 A3022 RMK A01 T00161061  RH  057%=      5-min Rain = 0
KCA1 111247Z 34011KT 02/M06 A3022 RMK A01 T00161061  RH  057%=      5-min Rain = 0
KCA1 111248Z 34010KT 02/M06 A3022 RMK A01 T00161061  RH  057%=      5-min Rain = 0
KCA1 111249Z 36009KT 02/M06 A3022 RMK A01 T00161062  RH  056%=      5-min Rain = 0
KCA1 111250Z 35009KT 02/M06 A3022 RMK A01 T00151063  RH  056%=      5-min Rain = 0
KCA1 111251Z 34012KT 01/M06 A3022 RMK A01 T00141063  RH  056%=      5-min Rain = 0
KCA1 111252Z 35012KT 01/M06 A3023 RMK A01 T00141063  RH  056%=      5-min Rain = 0
KCA1 111253Z 35012KT 02/M06 A3023 RMK A01 T00151063  RH  056%=      5-min Rain = 0
KCA1 111254Z 35012KT 01/M06 A3023 RMK A01 T00141064  RH  056%=      5-min Rain = 0
KCA1 111255Z 00014KT 01/M07 A3023 RMK A01 T00141065  RH  056%=      5-min Rain = 0
KCA1 111256Z 35013G18KT 01/M07 A3022 RMK A01 T00141065  RH  056%=      5-min Rain = 0
KCA1 111257Z 35012KT 01/M07 A3023 RMK A01 T00141065  RH  056%=      5-min Rain = 0
KCA1 111258Z 35015KT 01/M07 A3022 RMK A01 T00141065  RH  056%=      5-min Rain = 0
KCA1 111259Z 35012KT 01/M07 A3023 RMK A01 T00141065  RH  056%=      5-min Rain = 0
KCA1 111300Z 34012KT 01/M07 A3023 RMK A01 T00141065  RH  056%=      5-min Rain = 0
KCA1 111301Z 34011KT 01/M07 A3023 RMK A01 T00141065  RH  056%=      5-min Rain = 0
KCA1 111302Z 35011KT 01/M07 A3023 RMK A01 T00131066  RH  056%=      5-min Rain = 0
KCA1 111303Z 35015KT 01/M07 A3023 RMK A01 T00131066  RH  056%=      5-min Rain = 0
KCA1 111304Z 35015KT 01/M07 A3023 RMK A01 T00131066  RH  056%=      5-min Rain = 0
KCA1 111305Z 35013KT 01/M07 A3023 RMK A01 T00131066  RH  056%=      5-min Rain = 0
KCA1 111306Z 34015KT 01/M07 A3023 RMK A01 T00131066  RH  055%=      5-min Rain = 0
KCA1 111307Z 35013G18KT 01/M07 A3023 RMK A01 T00131067  RH  055%=      5-min Rain = 0
KCA1 111308Z 35015KT 01/M07 A3023 RMK A01 T00131067  RH  055%=      5-min Rain = 0
KCA1 111309Z 35013KT 01/M07 A3023 RMK A01 T00131067  RH  055%=      5-min Rain = 0
KCA1 111310Z 35013KT 01/M07 A3023 RMK A01 T00131067  RH  055%=      5-min Rain = 0
KCA1 111311Z 34013KT 01/M07 A3023 RMK A01 T00121067  RH  055%=      5-min Rain = 0
KCA1 111312Z 35012KT 01/M07 A3023 RMK A01 T00121068  RH  056%=      5-min Rain = 0
KCA1 111313Z 34014KT 01/M07 A3023 RMK A01 T00111068  RH  056%=      5-min Rain = 0
KCA1 111314Z 35013KT 01/M07 A3023 RMK A01 T00111068  RH  056%=      5-min Rain = 0
KCA1 111315Z 35017G22KT 01/M07 A3023 RMK A01 T00111067  RH  056%=      5-min Rain = 0
KCA1 111316Z 35015KT 01/M07 A3023 RMK A01 T00111067  RH  056%=      5-min Rain = 0
KCA1 111317Z 34013KT 01/M07 A3023 RMK A01 T00111068  RH  056%=      5-min Rain = 0
KCA1 111318Z 34014KT 01/M07 A3023 RMK A01 T00111067  RH  056%=      5-min Rain = 0
KCA1 111319Z 35014KT 01/M07 A3023 RMK A01 T00121067  RH  056%=      5-min Rain = 0
KCA1 111320Z 34012KT 01/M07 A3024 RMK A01 T00121067  RH  056%=      5-min Rain = 0
KCA1 111321Z 34013KT 01/M07 A3024 RMK A01 T00111068  RH  056%=      5-min Rain = 0
KCA1 111322Z 34012KT 01/M07 A3024 RMK A01 T00101068  RH  056%=      5-min Rain = 0
KCA1 111323Z 35017KT 01/M07 A3024 RMK A01 T00111067  RH  056%=      5-min Rain = 0
KCA1 111324Z 35013G19KT 01/M07 A3024 RMK A01 T00111067  RH  056%=      5-min Rain = 0
KCA1 111325Z 35013KT 01/M07 A3024 RMK A01 T00101068  RH  056%=      5-min Rain = 0
KCA1 111326Z 36013KT 01/M07 A3024 RMK A01 T00101068  RH  056%=      5-min Rain = 0
KCA1 111327Z 35011KT 01/M07 A3024 RMK A01 T00101068  RH  056%=      5-min Rain = 0
KCA1 111328Z 35015KT 01/M07 A3024 RMK A01 T00101068  RH  056%=      5-min Rain = 0
KCA1 111329Z 34017KT 01/M07 A3024 RMK A01 T00101067  RH  056%=      5-min Rain = 0
KCA1 111330Z 35013G18KT 01/M07 A3024 RMK A01 T00111067  RH  056%=      5-min Rain = 0
KCA1 111331Z 34013KT 01/M07 A3024 RMK A01 T00111067  RH  056%=      5-min Rain = 0
KCA1 111332Z 34012KT 01/M07 A3024 RMK A01 T00111067  RH  056%=      5-min Rain = 0
KCA1 111333Z 34011KT 01/M07 A3025 RMK A01 T00111067  RH  056%=      5-min Rain = 0
KCA1 111334Z 34011KT 01/M07 A3025 RMK A01 T00111067  RH  056%=      5-min Rain = 0
KCA1 111335Z 33012KT 01/M07 A3025 RMK A01 T00101067  RH  056%=      5-min Rain = 0
KCA1 111336Z 34013KT 01/M07 A3025 RMK A01 T00101067  RH  056%=      5-min Rain = 0
KCA1 111337Z 34009KT 01/M07 A3025 RMK A01 T00101067  RH  056%=      5-min Rain = 0
KCA1 111338Z 34011KT 01/M07 A3025 RMK A01 T00101067  RH  056%=      5-min Rain = 0
KCA1 111339Z 34010KT 01/M07 A3025 RMK A01 T00101066  RH  056%=      5-min Rain = 0
KCA1 111340Z 35010KT 01/M07 A3025 RMK A01 T00101066  RH  057%=      5-min Rain = 0
KCA1 111341Z 34012KT 01/M07 A3025 RMK A01 T00101066  RH  057%=      5-min Rain = 0
KCA1 111342Z 34013KT 01/M07 A3025 RMK A01 T00101066  RH  057%=      5-min Rain = 0
KCA1 111343Z 34014KT 01/M07 A3025 RMK A01 T00101066  RH  057%=      5-min Rain = 0
KCA1 111344Z 34014KT 01/M07 A3025 RMK A01 T00101066  RH  057%=      5-min Rain = 0
KCA1 111345Z 34013KT 01/M07 A3025 RMK A01 T00101066  RH  057%=      5-min Rain = 0
KCA1 111346Z 34015KT 01/M07 A3025 RMK A01 T00101066  RH  057%=      5-min Rain = 0
KCA1 111347Z 35014KT 01/M07 A3025 RMK A01 T00111065  RH  057%=      5-min Rain = 0
KCA1 111348Z 34012KT 01/M06 A3025 RMK A01 T00111064  RH  057%=      5-min Rain = 0
KCA1 111349Z 34012KT 01/M06 A3025 RMK A01 T00111064  RH  057%=      5-min Rain = 0
KCA1 111350Z 34013KT 01/M06 A3025 RMK A01 T00111064  RH  057%=      5-min Rain = 0
KCA1 111351Z 34014KT 01/M06 A3025 RMK A01 T00111063  RH  058%=      5-min Rain = 0
KCA1 111352Z 34012KT 01/M06 A3025 RMK A01 T00111063  RH  058%=      5-min Rain = 0
KCA1 111353Z 34011KT 01/M06 A3025 RMK A01 T00111062  RH  058%=      5-min Rain = 0
KCA1 111354Z 34010KT 01/M06 A3025 RMK A01 T00121062  RH  058%=      5-min Rain = 0
KCA1 111355Z 33009KT 01/M06 A3025 RMK A01 T00131062  RH  057%=      5-min Rain = 0
KCA1 111356Z 34011G16KT 01/M06 A3025 RMK A01 T00131062  RH  057%=      5-min Rain = 0
KCA1 111357Z 32009KT 01/M06 A3025 RMK A01 T00141062  RH  057%=      5-min Rain = 0
KCA1 111358Z 33010G15KT 02/M06 A3025 RMK A01 T00151062  RH  057%=      5-min Rain = 0
KCA1 111359Z 34011KT 02/M06 A3025 RMK A01 T00151062  RH  057%=      5-min Rain = 0
KCA1 111400Z 34013KT 02/M06 A3025 RMK A01 T00151062  RH  057%=      5-min Rain = 0
KCA1 111401Z 33013KT 02/M06 A3025 RMK A01 T00151062  RH  057%=      5-min Rain = 0
KCA1 111402Z 33015KT 02/M06 A3025 RMK A01 T00151062  RH  057%=      5-min Rain = 0
KCA1 111403Z 34014KT 01/M06 A3025 RMK A01 T00141062  RH  057%=      5-min Rain = 0
KCA1 111404Z 33014KT 01/M06 A3025 RMK A01 T00141062  RH  057%=      5-min Rain = 0
KCA1 111405Z 34012KT 01/M06 A3025 RMK A01 T00141061  RH  057%=      5-min Rain = 0
KCA1 111406Z 35012KT 02/M06 A3025 RMK A01 T00151061  RH  057%=      5-min Rain = 0
KCA1 111407Z 34013KT 02/M06 A3025 RMK A01 T00151061  RH  057%=      5-min Rain = 0
KCA1 111408Z 34013KT 02/M06 A3025 RMK A01 T00161060  RH  057%=      5-min Rain = 0
KCA1 111409Z 34015KT 02/M06 A3025 RMK A01 T00161060  RH  057%=      5-min Rain = 0
KCA1 111410Z 34014KT 02/M06 A3025 RMK A01 T00161060  RH  057%=      5-min Rain = 0
KCA1 111411Z 34016KT 02/M06 A3025 RMK A01 T00161060  RH  057%=      5-min Rain = 0
KCA1 111412Z 35018KT 02/M06 A3024 RMK A01 T00171059  RH  057%=      5-min Rain = 0
KCA1 111413Z 35017KT 02/M06 A3024 RMK A01 T00161059  RH  057%=      5-min Rain = 0
KCA1 111414Z 34016KT 02/M06 A3024 RMK A01 T00161059  RH  057%=      5-min Rain = 0
KCA1 111415Z 35014KT 02/M06 A3025 RMK A01 T00171058  RH  057%=      5-min Rain = 0
KCA1 111416Z 34018KT 02/M06 A3024 RMK A01 T00171059  RH  057%=      5-min Rain = 0
KCA1 111417Z 34015G20KT 02/M06 A3024 RMK A01 T00181058  RH  057%=      5-min Rain = 0
KCA1 111418Z 34017G23KT 02/M06 A3024 RMK A01 T00181057  RH  057%=      5-min Rain = 0
KCA1 111419Z 34017KT 02/M06 A3024 RMK A01 T00191057  RH  057%=      5-min Rain = 0
KCA1 111420Z 34016KT 02/M06 A3025 RMK A01 T00201057  RH  057%=      5-min Rain = 0
KCA1 111421Z 34015G23KT 02/M06 A3024 RMK A01 T00221056  RH  056%=      5-min Rain = 0
KCA1 111422Z 34017G22KT 02/M06 A3025 RMK A01 T00231056  RH  056%=      5-min Rain = 0
KCA1 111423Z 33019KT 02/M06 A3025 RMK A01 T00241056  RH  056%=      5-min Rain = 0
KCA1 111424Z 34018G23KT 03/M06 A3025 RMK A01 T00251055  RH  056%=      5-min Rain = 0
KCA1 111425Z 34018KT 02/M06 A3025 RMK A01 T00241056  RH  056%=      5-min Rain = 0
KCA1 111426Z 34014KT 02/M06 A3025 RMK A01 T00231056  RH  056%=      5-min Rain = 0
KCA1 111427Z 34014KT 02/M06 A3025 RMK A01 T00241055  RH  056%=      5-min Rain = 0
KCA1 111428Z 34017KT 03/M05 A3025 RMK A01 T00271053  RH  055%=      5-min Rain = 0
KCA1 111429Z 34018G23KT 03/M05 A3025 RMK A01 T00281054  RH  055%=      5-min Rain = 0
KCA1 111430Z 34017G22KT 03/M05 A3025 RMK A01 T00291054  RH  055%=      5-min Rain = 0
KCA1 111431Z 35017KT 03/M05 A3025 RMK A01 T00291054  RH  054%=      5-min Rain = 0
KCA1 111432Z 34015G20KT 03/M05 A3025 RMK A01 T00291053  RH  054%=      5-min Rain = 0
KCA1 111433Z 34021KT 03/M05 A3025 RMK A01 T00311053  RH  054%=      5-min Rain = 0
KCA1 111434Z 34021KT 03/M05 A3024 RMK A01 T00301054  RH  054%=      5-min Rain = 0
KCA1 111435Z 34019G26KT 03/M05 A3025 RMK A01 T00291053  RH  055%=      5-min Rain = 0
KCA1 111436Z 34019G24KT 03/M05 A3025 RMK A01 T00301052  RH  055%=      5-min Rain = 0
KCA1 111437Z 35021KT 03/M05 A3025 RMK A01 T00301052  RH  055%=      5-min Rain = 0
KCA1 111438Z 35021KT 03/M05 A3025 RMK A01 T00291052  RH  055%=      5-min Rain = 0
KCA1 111439Z 35018KT 03/M05 A3025 RMK A01 T00301052  RH  055%=      5-min Rain = 0
KCA1 111440Z 35015KT 03/M05 A3025 RMK A01 T00301052  RH  055%=      5-min Rain = 0
KCA1 111441Z 33015G20KT 03/M05 A3025 RMK A01 T00301052  RH  055%=      5-min Rain = 0
KCA1 111442Z 34016KT 03/M05 A3025 RMK A01 T00301052  RH  055%=      5-min Rain = 0
KCA1 111443Z 34020G25KT 03/M05 A3025 RMK A01 T00311051  RH  055%=      5-min Rain = 0
KCA1 111444Z 34017G22KT 03/M05 A3025 RMK A01 T00321051  RH  054%=      5-min Rain = 0
KCA1 111445Z 34015G20KT 03/M05 A3025 RMK A01 T00321051  RH  054%=      5-min Rain = 0
KCA1 111446Z 34019KT 03/M05 A3025 RMK A01 T00331050  RH  054%=      5-min Rain = 0
KCA1 111447Z 33019KT 03/M05 A3025 RMK A01 T00331051  RH  054%=      5-min Rain = 0
KCA1 111448Z 33022G29KT 03/M05 A3025 RMK A01 T00341050  RH  054%=      5-min Rain = 0
KCA1 111449Z 34024KT 03/M05 A3025 RMK A01 T00341050  RH  054%=      5-min Rain = 0
KCA1 111450Z 34022KT 03/M05 A3025 RMK A01 T00341050  RH  054%=      5-min Rain = 0
KCA1 111451Z 34021G26KT 03/M05 A3025 RMK A01 T00341049  RH  054%=      5-min Rain = 0
KCA1 111452Z 34022KT 04/M05 A3025 RMK A01 T00351050  RH  054%=      5-min Rain = 0
KCA1 111453Z 33021KT 04/M05 A3025 RMK A01 T00351050  RH  054%=      5-min Rain = 0
KCA1 111454Z 33020G26KT 04/M05 A3025 RMK A01 T00351050  RH  054%=      5-min Rain = 0
KCA1 111455Z 34022G28KT 04/M05 A3025 RMK A01 T00361050  RH  054%=      5-min Rain = 0
KCA1 111456Z 33022KT 04/M05 A3025 RMK A01 T00361049  RH  053%=      5-min Rain = 0
KCA1 111457Z 34022G27KT 04/M05 A3025 RMK A01 T00361050  RH  053%=      5-min Rain = 0
KCA1 111458Z 34022G27KT 04/M05 A3025 RMK A01 T00371050  RH  053%=      5-min Rain = 0
KCA1 111459Z 34021G26KT 04/M05 A3025 RMK A01 T00371050  RH  053%=      5-min Rain = 0
KCA1 111500Z 34020KT 04/M05 A3025 RMK A01 T00371050  RH  053%=      5-min Rain = 0
KCA1 111501Z 34022G27KT 04/M05 A3025 RMK A01 T00371050  RH  053%=      5-min Rain = 0
KCA1 111502Z 34022G27KT 04/M05 A3025 RMK A01 T00371051  RH  052%=      5-min Rain = 0
KCA1 111503Z 34020G26KT 04/M05 A3025 RMK A01 T00381051  RH  052%=      5-min Rain = 0
KCA1 111504Z 34021G27KT 04/M05 A3025 RMK A01 T00381051  RH  052%=      5-min Rain = 0
KCA1 111505Z 34019KT 04/M05 A3026 RMK A01 T00391051  RH  052%=      5-min Rain = 0
KCA1 111506Z 34019KT 04/M05 A3026 RMK A01 T00391051  RH  052%=      5-min Rain = 0
KCA1 111507Z 34021KT 04/M05 A3026 RMK A01 T00391051  RH  052%=      5-min Rain = 0
KCA1 111508Z 34020KT 04/M05 A3026 RMK A01 T00391052  RH  052%=      5-min Rain = 0
KCA1 111509Z 34021KT 04/M05 A3026 RMK A01 T00391052  RH  052%=      5-min Rain = 0
KCA1 111510Z 34021G27KT 04/M05 A3026 RMK A01 T00391052  RH  051%=      5-min Rain = 0
KCA1 111511Z 34018G24KT 04/M05 A3026 RMK A01 T00401052  RH  051%=      5-min Rain = 0
KCA1 111512Z 34021KT 04/M05 A3026 RMK A01 T00411052  RH  051%=      5-min Rain = 0
KCA1 111513Z 34021G26KT 04/M05 A3026 RMK A01 T00411052  RH  051%=      5-min Rain = 0
KCA1 111514Z 34020KT 04/M05 A3026 RMK A01 T00411052  RH  051%=      5-min Rain = 0
KCA1 111515Z 34022KT 04/M05 A3026 RMK A01 T00411052  RH  051%=      5-min Rain = 0
KCA1 111516Z 34018G23KT 04/M05 A3026 RMK A01 T00421052  RH  050%=      5-min Rain = 0
KCA1 111517Z 35020G25KT 04/M05 A3026 RMK A01 T00421052  RH  050%=      5-min Rain = 0
KCA1 111518Z 34021G28KT 04/M05 A3026 RMK A01 T00421052  RH  050%=      5-min Rain = 0
KCA1 111519Z 34024G30KT 04/M05 A3026 RMK A01 T00431052  RH  050%=      5-min Rain = 0
KCA1 111520Z 34022G27KT 04/M05 A3026 RMK A01 T00431053  RH  049%=      5-min Rain = 0
KCA1 111521Z 34023KT 04/M05 A3026 RMK A01 T00441053  RH  049%=      5-min Rain = 0
KCA1 111522Z 34024KT 05/M05 A3026 RMK A01 T00451053  RH  049%=      5-min Rain = 0
KCA1 111523Z 34025G30KT 04/M06 A3026 RMK A01 T00431055  RH  049%=      5-min Rain = 0
KCA1 111524Z 34022G29KT 04/M05 A3026 RMK A01 T00431054  RH  049%=      5-min Rain = 0
KCA1 111525Z 34023KT 04/M05 A3026 RMK A01 T00431053  RH  049%=      5-min Rain = 0
KCA1 111526Z 33020KT 04/M05 A3026 RMK A01 T00441053  RH  049%=      5-min Rain = 0
KCA1 111527Z 33021KT 05/M05 A3026 RMK A01 T00451053  RH  049%=      5-min Rain = 0
KCA1 111528Z 34024KT 05/M05 A3026 RMK A01 T00451053  RH  049%=      5-min Rain = 0
KCA1 111529Z 34023KT 04/M05 A3026 RMK A01 T00441053  RH  049%=      5-min Rain = 0
KCA1 111530Z 34020KT 04/M05 A3027 RMK A01 T00441052  RH  050%=      5-min Rain = 0
KCA1 111531Z 34017KT 05/M05 A3027 RMK A01 T00461051  RH  050%=      5-min Rain = 0
KCA1 111532Z 33018G23KT 05/M05 A3026 RMK A01 T00481050  RH  049%=      5-min Rain = 0
KCA1 111533Z 35019G26KT 05/M05 A3027 RMK A01 T00481051  RH  049%=      5-min Rain = 0
KCA1 111534Z 34020KT 05/M05 A3027 RMK A01 T00491050  RH  048%=      5-min Rain = 0
KCA1 111535Z 34018KT 05/M05 A3027 RMK A01 T00491051  RH  048%=      5-min Rain = 0
KCA1 111536Z 34018G24KT 05/M05 A3027 RMK A01 T00491051  RH  048%=      5-min Rain = 0
KCA1 111537Z 34018G23KT 05/M05 A3027 RMK A01 T00501050  RH  048%=      5-min Rain = 0
KCA1 111538Z 34017G22KT 05/M05 A3027 RMK A01 T00521049  RH  048%=      5-min Rain = 0
KCA1 111539Z 35024G29KT 05/M05 A3027 RMK A01 T00531050  RH  048%=      5-min Rain = 0
KCA1 111540Z 34022KT 05/M05 A3027 RMK A01 T00541050  RH  047%=      5-min Rain = 0
KCA1 111541Z 34021KT 06/M05 A3027 RMK A01 T00561050  RH  046%=      5-min Rain = 0
KCA1 111542Z 34020KT 06/M05 A3027 RMK A01 T00571052  RH  046%=      5-min Rain = 0
KCA1 111543Z 34020G25KT 06/M05 A3027 RMK A01 T00571053  RH  045%=      5-min Rain = 0
KCA1 111544Z 34020KT 06/M05 A3027 RMK A01 T00551054  RH  045%=      5-min Rain = 0
KCA1 111545Z 33023G30KT 06/M05 A3026 RMK A01 T00561054  RH  045%=      5-min Rain = 0
KCA1 111546Z 33022KT 06/M05 A3026 RMK A01 T00561054  RH  045%=      5-min Rain = 0
KCA1 111547Z 34020KT 06/M05 A3027 RMK A01 T00551054  RH  045%=      5-min Rain = 0
KCA1 111548Z 34019G24KT 06/M05 A3027 RMK A01 T00561053  RH  045%=      5-min Rain = 0
KCA1 111549Z 35017G24KT 06/M06 A3027 RMK A01 T00581057  RH  043%=      5-min Rain = 0
KCA1 111550Z 34019KT 06/M06 A3027 RMK A01 T00591058  RH  043%=      5-min Rain = 0
KCA1 111551Z 34017KT 06/M06 A3027 RMK A01 T00601056  RH  043%=      5-min Rain = 0
KCA1 111552Z 35019G25KT 06/M06 A3027 RMK A01 T00591056  RH  043%=      5-min Rain = 0
KCA1 111553Z 35015KT 06/M06 A3027 RMK A01 T00621056  RH  043%=      5-min Rain = 0
KCA1 111554Z 34018KT 07/M06 A3027 RMK A01 T00651057  RH  041%=      5-min Rain = 0
KCA1 111555Z 35020KT 06/M06 A3027 RMK A01 T00631064  RH  040%=      5-min Rain = 0
KCA1 111556Z 35020G26KT 06/M07 A3027 RMK A01 T00601069  RH  039%=      5-min Rain = 0
KCA1 111557Z 34021KT 06/M07 A3027 RMK A01 T00611067  RH  039%=      5-min Rain = 0
KCA1 111558Z 35020G25KT 06/M07 A3027 RMK A01 T00611069  RH  039%=      5-min Rain = 0
KCA1 111559Z 34020KT 06/M07 A3027 RMK A01 T00591074  RH  038%=      5-min Rain = 0
KCA1 111600Z 34018KT 06/M07 A3027 RMK A01 T00581073  RH  038%=      5-min Rain = 0
KCA1 111601Z 34018G23KT 06/M07 A3027 RMK A01 T00591071  RH  039%=      5-min Rain = 0
KCA1 111602Z 34017KT 06/M07 A3027 RMK A01 T00601073  RH  038%=      5-min Rain = 0
KCA1 111603Z 34018G24KT 06/M07 A3027 RMK A01 T00611073  RH  038%=      5-min Rain = 0
KCA1 111604Z 34021G26KT 06/M07 A3027 RMK A01 T00611073  RH  038%=      5-min Rain = 0
KCA1 111605Z 34020KT 06/M07 A3028 RMK A01 T00611073  RH  037%=      5-min Rain = 0
KCA1 111606Z 34021KT 06/M08 A3028 RMK A01 T00611075  RH  037%=      5-min Rain = 0
KCA1 111607Z 33021KT 06/M08 A3027 RMK A01 T00611076  RH  037%=      5-min Rain = 0
KCA1 111608Z 34021KT 06/M08 A3027 RMK A01 T00601076  RH  037%=      5-min Rain = 0
KCA1 111609Z 35023G28KT 06/M08 A3028 RMK A01 T00601078  RH  036%=      5-min Rain = 0
KCA1 111610Z 34019G26KT 06/M08 A3028 RMK A01 T00611078  RH  036%=      5-min Rain = 0
KCA1 111611Z 34020KT 06/M08 A3028 RMK A01 T00631078  RH  036%=      5-min Rain = 0
KCA1 111612Z 35024KT 06/M08 A3028 RMK A01 T00621080  RH  035%=      5-min Rain = 0
KCA1 111613Z 35017G23KT 06/M08 A3028 RMK A01 T00621081  RH  035%=      5-min Rain = 0
KCA1 111614Z 35019G24KT 07/M08 A3028 RMK A01 T00651079  RH  035%=      5-min Rain = 0
KCA1 111615Z 35020KT 07/M08 A3028 RMK A01 T00661082  RH  034%=      5-min Rain = 0
KCA1 111616Z 36021KT 07/M08 A3028 RMK A01 T00651083  RH  034%=      5-min Rain = 0
KCA1 111617Z 35021G26KT 07/M08 A3028 RMK A01 T00651084  RH  034%=      5-min Rain = 0
KCA1 111618Z 35021G27KT 06/M09 A3028 RMK A01 T00631085  RH  034%=      5-min Rain = 0
KCA1 111619Z 35022KT 06/M08 A3028 RMK A01 T00631084  RH  034%=      5-min Rain = 0
KCA1 111620Z 35015KT 06/M09 A3028 RMK A01 T00621085  RH  034%=      5-min Rain = 0
KCA1 111621Z 35019G27KT 07/M08 A3028 RMK A01 T00661082  RH  034%=      5-min Rain = 0
KCA1 111622Z 35020KT 07/M08 A3028 RMK A01 T00691083  RH  033%=      5-min Rain = 0
KCA1 111623Z 35021KT 07/M08 A3028 RMK A01 T00691082  RH  033%=      5-min Rain = 0
KCA1 111624Z 35020G26KT 07/M08 A3028 RMK A01 T00671081  RH  034%=      5-min Rain = 0
KCA1 111625Z 34017KT 07/M08 A3027 RMK A01 T00661078  RH  035%=      5-min Rain = 0
KCA1 111626Z 33022KT 07/M08 A3027 RMK A01 T00701077  RH  034%=      5-min Rain = 0
KCA1 111627Z 33023KT 07/M08 A3027 RMK A01 T00681081  RH  034%=      5-min Rain = 0
KCA1 111628Z 34024KT 07/M08 A3027 RMK A01 T00651083  RH  034%=      5-min Rain = 0
KCA1 111629Z 35022G29KT 06/M08 A3028 RMK A01 T00641084  RH  034%=      5-min Rain = 0
KCA1 111630Z 35021G26KT 06/M09 A3028 RMK A01 T00631086  RH  034%=      5-min Rain = 0
KCA1 111631Z 34021KT 07/M09 A3028 RMK A01 T00651087  RH  033%=      5-min Rain = 0
KCA1 111632Z 34020KT 07/M09 A3028 RMK A01 T00671087  RH  032%=      5-min Rain = 0
KCA1 111633Z 35016G23KT 07/M09 A3028 RMK A01 T00681089  RH  032%=      5-min Rain = 0
KCA1 111634Z 35014G22KT 07/M09 A3028 RMK A01 T00681088  RH  032%=      5-min Rain = 0
KCA1 111635Z 35022KT 07/M09 A3028 RMK A01 T00691087  RH  032%=      5-min Rain = 0
KCA1 111636Z 35020KT 07/M09 A3028 RMK A01 T00691089  RH  031%=      5-min Rain = 0
KCA1 111637Z 34019G24KT 07/M09 A3028 RMK A01 T00711088  RH  031%=      5-min Rain = 0
KCA1 111638Z 35021KT 07/M09 A3028 RMK A01 T00711088  RH  031%=      5-min Rain = 0
KCA1 111639Z 34023KT 07/M09 A3028 RMK A01 T00681090  RH  031%=      5-min Rain = 0
KCA1 111640Z 34020G25KT 07/M09 A3028 RMK A01 T00661089  RH  032%=      5-min Rain = 0
KCA1 111641Z 35018G25KT 07/M09 A3028 RMK A01 T00661086  RH  033%=      5-min Rain = 0
KCA1 111642Z 35023KT 07/M09 A3028 RMK A01 T00661086  RH  033%=      5-min Rain = 0
KCA1 111643Z 34021KT 07/M09 A3028 RMK A01 T00661088  RH  032%=      5-min Rain = 0
KCA1 111644Z 35022KT 07/M09 A3028 RMK A01 T00671087  RH  032%=      5-min Rain = 0
KCA1 111645Z 34022KT 07/M09 A3028 RMK A01 T00661088  RH  032%=      5-min Rain = 0
KCA1 111646Z 34020KT 07/M09 A3028 RMK A01 T00651087  RH  033%=      5-min Rain = 0
KCA1 111647Z 35021KT 07/M09 A3028 RMK A01 T00651085  RH  033%=      5-min Rain = 0
KCA1 111648Z 34022KT 07/M09 A3028 RMK A01 T00651085  RH  033%=      5-min Rain = 0
KCA1 111649Z 35018KT 07/M08 A3028 RMK A01 T00651084  RH  034%=      5-min Rain = 0
KCA1 111650Z 33017KT 07/M08 A3028 RMK A01 T00651084  RH  033%=      5-min Rain = 0
KCA1 111651Z 34020KT 07/M08 A3028 RMK A01 T00691084  RH  033%=      5-min Rain = 0
KCA1 111652Z 35021G26KT 07/M09 A3028 RMK A01 T00701088  RH  032%=      5-min Rain = 0
KCA1 111653Z 34021G26KT 07/M09 A3028 RMK A01 T00671090  RH  032%=      5-min Rain = 0
KCA1 111654Z 34020KT 07/M09 A3028 RMK A01 T00671086  RH  033%=      5-min Rain = 0
KCA1 111655Z 35020KT 07/M08 A3028 RMK A01 T00681084  RH  033%=      5-min Rain = 0
KCA1 111656Z 34018KT 07/M09 A3028 RMK A01 T00671085  RH  033%=      5-min Rain = 0
KCA1 111657Z 34018G23KT 07/M08 A3028 RMK A01 T00701083  RH  033%=      5-min Rain = 0
KCA1 111658Z 34019G25KT 07/M08 A3028 RMK A01 T00711083  RH  032%=      5-min Rain = 0
KCA1 111659Z 34020G25KT 07/M08 A3028 RMK A01 T00681084  RH  033%=      5-min Rain = 0
KCA1 111700Z 34016KT 07/M08 A3028 RMK A01 T00681083  RH  033%=      5-min Rain = 0
KCA1 111701Z 34016KT 07/M08 A3028 RMK A01 T00681082  RH  033%=      5-min Rain = 0
KCA1 111702Z 35017G22KT 07/M08 A3028 RMK A01 T00691079  RH  034%=      5-min Rain = 0
KCA1 111703Z 35013KT 07/M08 A3029 RMK A01 T00701076  RH  035%=      5-min Rain = 0
KCA1 111704Z 34013KT 07/M08 A3029 RMK A01 T00711076  RH  034%=      5-min Rain = 0
KCA1 111705Z 33018G23KT 07/M08 A3028 RMK A01 T00711076  RH  034%=      5-min Rain = 0
KCA1 111706Z 33023KT 07/M08 A3028 RMK A01 T00731079  RH  033%=      5-min Rain = 0
KCA1 111707Z 34017G22KT 07/M08 A3028 RMK A01 T00711084  RH  032%=      5-min Rain = 0
KCA1 111708Z 33021KT 07/M08 A3028 RMK A01 T00701083  RH  033%=      5-min Rain = 0
KCA1 111709Z 34022KT 07/M08 A3028 RMK A01 T00691083  RH  033%=      5-min Rain = 0
KCA1 111710Z 34020KT 07/M08 A3028 RMK A01 T00701082  RH  033%=      5-min Rain = 0
KCA1 111711Z 34020KT 07/M08 A3028 RMK A01 T00701082  RH  033%=      5-min Rain = 0
KCA1 111712Z 34019KT 07/M08 A3028 RMK A01 T00701080  RH  033%=      5-min Rain = 0
KCA1 111713Z 33017G22KT 07/M08 A3028 RMK A01 T00721076  RH  034%=      5-min Rain = 0
KCA1 111714Z 33020G25KT 07/M08 A3028 RMK A01 T00731075  RH  034%=      5-min Rain = 0
KCA1 111715Z 33018G23KT 07/M08 A3028 RMK A01 T00721076  RH  034%=      5-min Rain = 0
KCA1 111716Z 33015KT 07/M08 A3028 RMK A01 T00711076  RH  034%=      5-min Rain = 0
KCA1 111717Z 32015G21KT 07/M07 A3028 RMK A01 T00711074  RH  035%=      5-min Rain = 0
KCA1 111718Z 33015KT 07/M07 A3028 RMK A01 T00741072  RH  035%=      5-min Rain = 0
KCA1 111719Z 33019G24KT 08/M07 A3028 RMK A01 T00771072  RH  034%=      5-min Rain = 0
KCA1 111720Z 33020KT 08/M07 A3028 RMK A01 T00771074  RH  034%=      5-min Rain = 0
KCA1 111721Z 34017G23KT 07/M07 A3028 RMK A01 T00741074  RH  034%=      5-min Rain = 0
KCA1 111722Z 33015KT 08/M07 A3028 RMK A01 T00781071  RH  034%=      5-min Rain = 0
KCA1 111723Z 34021KT 08/M07 A3028 RMK A01 T00821072  RH  033%=      5-min Rain = 0
KCA1 111724Z 34017KT 08/M08 A3028 RMK A01 T00781077  RH  032%=      5-min Rain = 0
KCA1 111725Z 34017KT 07/M08 A3028 RMK A01 T00741076  RH  033%=      5-min Rain = 0
KCA1 111726Z 33020KT 07/M07 A3028 RMK A01 T00741074  RH  034%=      5-min Rain = 0
KCA1 111727Z 33019KT 07/M07 A3028 RMK A01 T00741073  RH  035%=      5-min Rain = 0
KCA1 111728Z 33016KT 07/M07 A3028 RMK A01 T00721072  RH  035%=      5-min Rain = 0
KCA1 111729Z 34017KT 07/M07 A3028 RMK A01 T00701072  RH  035%=      5-min Rain = 0
KCA1 111730Z 33020KT 07/M07 A3028 RMK A01 T00701072  RH  036%=      5-min Rain = 0
KCA1 111731Z 33016KT 07/M07 A3028 RMK A01 T00701072  RH  036%=      5-min Rain = 0
KCA1 111732Z 33018KT 07/M07 A3028 RMK A01 T00721070  RH  036%=      5-min Rain = 0
KCA1 111733Z 33018KT 08/M07 A3028 RMK A01 T00751070  RH  035%=      5-min Rain = 0
KCA1 111734Z 33021KT 08/M07 A3028 RMK A01 T00771069  RH  035%=      5-min Rain = 0
KCA1 111735Z 33017G22KT 08/M07 A3028 RMK A01 T00771070  RH  034%=      5-min Rain = 0
KCA1 111736Z 33015KT 08/M07 A3028 RMK A01 T00751069  RH  035%=      5-min Rain = 0
KCA1 111737Z 35016KT 08/M07 A3028 RMK A01 T00771066  RH  035%=      5-min Rain = 0
KCA1 111738Z 34017KT 08/M07 A3028 RMK A01 T00771068  RH  035%=      5-min Rain = 0
KCA1 111739Z 34015KT 08/M07 A3028 RMK A01 T00791068  RH  035%=      5-min Rain = 0
KCA1 111740Z 34016KT 08/M07 A3028 RMK A01 T00801068  RH  034%=      5-min Rain = 0
KCA1 111741Z 34016KT 08/M07 A3028 RMK A01 T00761069  RH  035%=      5-min Rain = 0
KCA1 111742Z 33018G24KT 08/M07 A3028 RMK A01 T00751068  RH  035%=      5-min Rain = 0
KCA1 111743Z 33020G28KT 08/M07 A3028 RMK A01 T00771068  RH  035%=      5-min Rain = 0
KCA1 111744Z 33020KT 08/M07 A3028 RMK A01 T00781069  RH  034%=      5-min Rain = 0
KCA1 111745Z 33021KT 08/M07 A3028 RMK A01 T00771069  RH  035%=      5-min Rain = 0
KCA1 111746Z 34019KT 08/M07 A3028 RMK A01 T00771068  RH  035%=      5-min Rain = 0
KCA1 111747Z 35019KT 08/M07 A3028 RMK A01 T00781066  RH  035%=      5-min Rain = 0
KCA1 111748Z 35017KT 08/M07 A3028 RMK A01 T00791066  RH  035%=      5-min Rain = 0
KCA1 111749Z 34017KT 08/M06 A3028 RMK A01 T00811064  RH  035%=      5-min Rain = 0
KCA1 111750Z 35013KT 08/M07 A3028 RMK A01 T00811065  RH  035%=      5-min Rain = 0
KCA1 111751Z 35016KT 08/M06 A3028 RMK A01 T00801064  RH  035%=      5-min Rain = 0
KCA1 111752Z 35016KT 08/M06 A3028 RMK A01 T00811064  RH  035%=      5-min Rain = 0
KCA1 111753Z 34018G24KT 08/M06 A3028 RMK A01 T00821064  RH  035%=      5-min Rain = 0
KCA1 111754Z 35016G21KT 08/M07 A3028 RMK A01 T00841069  RH  033%=      5-min Rain = 0
KCA1 111755Z 35012KT 09/M07 A3028 RMK A01 T00851070  RH  033%=      5-min Rain = 0
KCA1 111756Z 33018KT 09/M07 A3027 RMK A01 T00901068  RH  032%=      5-min Rain = 0
KCA1 111757Z 34018KT 09/M07 A3027 RMK A01 T00891070  RH  032%=      5-min Rain = 0
KCA1 111758Z 33018KT 09/M07 A3027 RMK A01 T00891069  RH  032%=      5-min Rain = 0
KCA1 111759Z 34018KT 09/M07 A3027 RMK A01 T00881070  RH  032%=      5-min Rain = 0
KCA1 111800Z 33016KT 08/M07 A3027 RMK A01 T00841071  RH  033%=      5-min Rain = 0
KCA1 111801Z 32014KT 08/M07 A3027 RMK A01 T00841069  RH  033%=      5-min Rain = 0
KCA1 111802Z 34015KT 09/M07 A3027 RMK A01 T00861067  RH  033%=      5-min Rain = 0
KCA1 111803Z 33016KT 09/M07 A3027 RMK A01 T00911067  RH  032%=      5-min Rain = 0
KCA1 111804Z 33019G25KT 09/M07 A3027 RMK A01 T00941069  RH  031%=      5-min Rain = 0
KCA1 111805Z 34013KT 09/M07 A3027 RMK A01 T00931071  RH  031%=      5-min Rain = 0
KCA1 111806Z 33019G27KT 10/M07 A3027 RMK A01 T00961069  RH  031%=      5-min Rain = 0
KCA1 111807Z 34020KT 10/M07 A3027 RMK A01 T00961073  RH  030%=      5-min Rain = 0
KCA1 111808Z 34017KT 09/M08 A3027 RMK A01 T00911075  RH  030%=      5-min Rain = 0
KCA1 111809Z 33014G19KT 09/M07 A3027 RMK A01 T00901073  RH  031%=      5-min Rain = 0
KCA1 111810Z 34017KT 09/M07 A3027 RMK A01 T00911073  RH  031%=      5-min Rain = 0
KCA1 111811Z 35018KT 09/M07 A3027 RMK A01 T00931073  RH  030%=      5-min Rain = 0
KCA1 111812Z 00018KT 09/M07 A3027 RMK A01 T00931074  RH  030%=      5-min Rain = 0
KCA1 111813Z 00019KT 09/M08 A3027 RMK A01 T00901075  RH  031%=      5-min Rain = 0
KCA1 111814Z 33016G24KT 09/M07 A3027 RMK A01 T00851074  RH  031%=      5-min Rain = 0
KCA1 111815Z 33019KT 09/M07 A3027 RMK A01 T00871072  RH  032%=      5-min Rain = 0
KCA1 111816Z 34018KT 09/M07 A3027 RMK A01 T00901071  RH  031%=      5-min Rain = 0
KCA1 111817Z 33019KT 09/M07 A3027 RMK A01 T00921071  RH  031%=      5-min Rain = 0
KCA1 111818Z 34014KT 09/M07 A3027 RMK A01 T00921072  RH  031%=      5-min Rain = 0
KCA1 111819Z 34014G22KT 09/M07 A3027 RMK A01 T00931071  RH  031%=      5-min Rain = 0
KCA1 111820Z 34019G25KT 09/M07 A3027 RMK A01 T00941071  RH  030%=      5-min Rain = 0
KCA1 111821Z 34016KT 10/M07 A3027 RMK A01 T00961071  RH  030%=      5-min Rain = 0
KCA1 111822Z 33017G23KT 10/M07 A3027 RMK A01 T00971072  RH  030%=      5-min Rain = 0
KCA1 111823Z 33017KT 09/M07 A3027 RMK A01 T00941074  RH  030%=      5-min Rain = 0
KCA1 111824Z 33018KT 09/M07 A3026 RMK A01 T00921074  RH  030%=      5-min Rain = 0
KCA1 111825Z 34018KT 10/M07 A3027 RMK A01 T00951072  RH  030%=      5-min Rain = 0
KCA1 111826Z 33018KT 09/M07 A3026 RMK A01 T00941073  RH  030%=      5-min Rain = 0
KCA1 111827Z 33017G22KT 10/M07 A3026 RMK A01 T00961071  RH  030%=      5-min Rain = 0
KCA1 111828Z 32015KT 10/M07 A3026 RMK A01 T00971071  RH  030%=      5-min Rain = 0
KCA1 111829Z 31017KT 10/M07 A3026 RMK A01 T00961071  RH  030%=      5-min Rain = 0
KCA1 111830Z 32020G27KT 10/M07 A3026 RMK A01 T00961071  RH  030%=      5-min Rain = 0
KCA1 111831Z 33017G22KT 10/M07 A3026 RMK A01 T00951070  RH  030%=      5-min Rain = 0
KCA1 111832Z 34017KT 10/M07 A3026 RMK A01 T00951068  RH  031%=      5-min Rain = 0
KCA1 111833Z 33018G25KT 10/M07 A3026 RMK A01 T00981067  RH  031%=      5-min Rain = 0
KCA1 111834Z 33018KT 10/M07 A3026 RMK A01 T00981068  RH  030%=      5-min Rain = 0
KCA1 111835Z 33018G23KT 10/M07 A3026 RMK A01 T00971068  RH  031%=      5-min Rain = 0
KCA1 111836Z 32016KT 10/M07 A3026 RMK A01 T00961069  RH  031%=      5-min Rain = 0
KCA1 111837Z 33013KT 10/M07 A3026 RMK A01 T00951068  RH  031%=      5-min Rain = 0
KCA1 111838Z 34015KT 10/M07 A3026 RMK A01 T00991066  RH  031%=      5-min Rain = 0
KCA1 111839Z 35015G20KT 10/M07 A3026 RMK A01 T01021066  RH  030%=      5-min Rain = 0
KCA1 111840Z 33016G21KT 11/M07 A3026 RMK A01 T01051066  RH  030%=      5-min Rain = 0
KCA1 111841Z 32017KT 11/M07 A3026 RMK A01 T01051068  RH  029%=      5-min Rain = 0
KCA1 111842Z 34016KT 10/M07 A3026 RMK A01 T01001069  RH  030%=      5-min Rain = 0
KCA1 111843Z 33014KT 10/M07 A3026 RMK A01 T01021067  RH  030%=      5-min Rain = 0
KCA1 111844Z 34013G18KT 10/M07 A3026 RMK A01 T01031067  RH  030%=      5-min Rain = 0
KCA1 111845Z 34015KT 10/M07 A3026 RMK A01 T01041067  RH  029%=      5-min Rain = 0
KCA1 111846Z 35015KT 11/M07 A3026 RMK A01 T01081065  RH  029%=      5-min Rain = 0
KCA1 111847Z 01019KT 11/M07 A3026 RMK A01 T01101065  RH  029%=      5-min Rain = 0
KCA1 111848Z 36019KT 10/M07 A3026 RMK A01 T01041072  RH  028%=      5-min Rain = 0
KCA1 111849Z 36020G27KT 10/M07 A3026 RMK A01 T00971073  RH  029%=      5-min Rain = 0
KCA1 111850Z 33020KT 10/M07 A3026 RMK A01 T00961070  RH  030%=      5-min Rain = 0
KCA1 111851Z 32020KT 10/M07 A3025 RMK A01 T00981068  RH  030%=      5-min Rain = 0
KCA1 111852Z 33020KT 10/M07 A3025 RMK A01 T01001068  RH  030%=      5-min Rain = 0
KCA1 111853Z 34014KT 10/M07 A3026 RMK A01 T00991068  RH  030%=      5-min Rain = 0
KCA1 111854Z 35016KT 10/M07 A3025 RMK A01 T01001067  RH  030%=      5-min Rain = 0
KCA1 111855Z 36014KT 10/M07 A3025 RMK A01 T01001067  RH  030%=      5-min Rain = 0
KCA1 111856Z 33022KT 10/M07 A3025 RMK A01 T01031066  RH  030%=      5-min Rain = 0
KCA1 111857Z 33018G24KT 10/M07 A3025 RMK A01 T01041067  RH  029%=      5-min Rain = 0
KCA1 111858Z 34016G21KT 10/M07 A3025 RMK A01 T01041066  RH  030%=      5-min Rain = 0
KCA1 111859Z 33013KT 11/M07 A3025 RMK A01 T01061065  RH  029%=      5-min Rain = 0
KCA1 111900Z 35017G22KT 11/M07 A3025 RMK A01 T01071066  RH  029%=      5-min Rain = 0
KCA1 111901Z 35017KT 11/M07 A3025 RMK A01 T01061066  RH  029%=      5-min Rain = 0
KCA1 111902Z 35018KT 11/M07 A3025 RMK A01 T01061066  RH  029%=      5-min Rain = 0
KCA1 111903Z 36017KT 11/M07 A3025 RMK A01 T01071066  RH  029%=      5-min Rain = 0
KCA1 111904Z 36017G24KT 11/M07 A3025 RMK A01 T01071066  RH  029%=      5-min Rain = 0
KCA1 111905Z 36016G21KT 11/M07 A3025 RMK A01 T01071066  RH  029%=      5-min Rain = 0
KCA1 111906Z 35015KT 11/M07 A3025 RMK A01 T01071067  RH  029%=      5-min Rain = 0
KCA1 111907Z 35013KT 11/M07 A3025 RMK A01 T01051067  RH  029%=      5-min Rain = 0
KCA1 111908Z 34015KT 11/M06 A3025 RMK A01 T01091064  RH  029%=      5-min Rain = 0
KCA1 111909Z 34016KT 11/M07 A3025 RMK A01 T01111065  RH  028%=      5-min Rain = 0
KCA1 111910Z 36017KT 11/M06 A3025 RMK A01 T01141064  RH  028%=      5-min Rain = 0
KCA1 111911Z 35015KT 11/M07 A3025 RMK A01 T01131066  RH  028%=      5-min Rain = 0
KCA1 111912Z 33010KT 11/M07 A3025 RMK A01 T01121065  RH  028%=      5-min Rain = 0
KCA1 111913Z 31015G22KT 11/M06 A3025 RMK A01 T01141064  RH  028%=      5-min Rain = 0
KCA1 111914Z 32017KT 11/M07 A3024 RMK A01 T01131066  RH  028%=      5-min Rain = 0
KCA1 111915Z 32014KT 11/M07 A3024 RMK A01 T01091068  RH  028%=      5-min Rain = 0
KCA1 111916Z 34018G23KT 11/M07 A3024 RMK A01 T01071067  RH  029%=      5-min Rain = 0
KCA1 111917Z 34018KT 11/M07 A3025 RMK A01 T01071065  RH  029%=      5-min Rain = 0
KCA1 111918Z 34016KT 10/M07 A3025 RMK A01 T01041068  RH  029%=      5-min Rain = 0
KCA1 111919Z 35021KT 10/M07 A3024 RMK A01 T01031068  RH  029%=      5-min Rain = 0
KCA1 111920Z 34021KT 10/M07 A3024 RMK A01 T01031067  RH  030%=      5-min Rain = 0
KCA1 111921Z 34019KT 10/M07 A3024 RMK A01 T01021067  RH  030%=      5-min Rain = 0
KCA1 111922Z 35019KT 10/M07 A3025 RMK A01 T01041065  RH  030%=      5-min Rain = 0
KCA1 111923Z 34018KT 11/M06 A3025 RMK A01 T01061064  RH  030%=      5-min Rain = 0
KCA1 111924Z 35015G20KT 11/M07 A3025 RMK A01 T01051065  RH  030%=      5-min Rain = 0
KCA1 111925Z 01015KT 11/M07 A3024 RMK A01 T01051065  RH  030%=      5-min Rain = 0
KCA1 111926Z 35017KT 10/M07 A3024 RMK A01 T01021066  RH  030%=      5-min Rain = 0
KCA1 111927Z 35015KT 10/M06 A3024 RMK A01 T01031063  RH  030%=      5-min Rain = 0
KCA1 111928Z 33020KT 11/M06 A3024 RMK A01 T01051062  RH  030%=      5-min Rain = 0
KCA1 111929Z 33019G24KT 11/M06 A3024 RMK A01 T01051062  RH  030%=      5-min Rain = 0
KCA1 111930Z 36019KT 11/M06 A3024 RMK A01 T01051062  RH  030%=      5-min Rain = 0
KCA1 111931Z 35017G23KT 11/M06 A3024 RMK A01 T01051063  RH  030%=      5-min Rain = 0
KCA1 111932Z 35016G21KT 11/M06 A3024 RMK A01 T01051063  RH  030%=      5-min Rain = 0
KCA1 111933Z 36016KT 11/M06 A3024 RMK A01 T01051063  RH  030%=      5-min Rain = 0
KCA1 111934Z 35015G20KT 10/M06 A3024 RMK A01 T01031064  RH  030%=      5-min Rain = 0
KCA1 111935Z 34013KT 11/M06 A3024 RMK A01 T01051062  RH  030%=      5-min Rain = 0
KCA1 111936Z 34017G23KT 11/M06 A3024 RMK A01 T01081059  RH  030%=      5-min Rain = 0
KCA1 111937Z 35019KT 11/M06 A3024 RMK A01 T01111060  RH  030%=      5-min Rain = 0
KCA1 111938Z 35015KT 11/M06 A3024 RMK A01 T01101062  RH  029%=      5-min Rain = 0
KCA1 111939Z 33013KT 11/M06 A3024 RMK A01 T01091061  RH  030%=      5-min Rain = 0
KCA1 111940Z 33019KT 11/M06 A3023 RMK A01 T01111060  RH  030%=      5-min Rain = 0
KCA1 111941Z 33015G22KT 11/M06 A3023 RMK A01 T01111061  RH  029%=      5-min Rain = 0
KCA1 111942Z 33020KT 11/M06 A3023 RMK A01 T01131060  RH  029%=      5-min Rain = 0
KCA1 111943Z 34016G21KT 11/M06 A3023 RMK A01 T01121061  RH  029%=      5-min Rain = 0
KCA1 111944Z 36021KT 11/M06 A3024 RMK A01 T01141058  RH  029%=      5-min Rain = 0
KCA1 111945Z 35016G23KT 11/M06 A3024 RMK A01 T01111062  RH  029%=      5-min Rain = 0
KCA1 111946Z 35015KT 11/M06 A3024 RMK A01 T01091061  RH  030%=      5-min Rain = 0
KCA1 111947Z 36015KT 11/M06 A3024 RMK A01 T01091060  RH  030%=      5-min Rain = 0
KCA1 111948Z 33015G20KT 11/M06 A3024 RMK A01 T01111058  RH  030%=      5-min Rain = 0
KCA1 111949Z 34014KT 11/M06 A3024 RMK A01 T01141057  RH  030%=      5-min Rain = 0
KCA1 111950Z 35016KT 11/M06 A3024 RMK A01 T01141058  RH  029%=      5-min Rain = 0
KCA1 111951Z 35020KT 12/M06 A3024 RMK A01 T01151057  RH  029%=      5-min Rain = 0
KCA1 111952Z 36018KT 12/M06 A3024 RMK A01 T01151058  RH  029%=      5-min Rain = 0
KCA1 111953Z 35018KT 11/M06 A3024 RMK A01 T01141058  RH  029%=      5-min Rain = 0
KCA1 111954Z 35011KT 11/M06 A3023 RMK A01 T01131059  RH  029%=      5-min Rain = 0
KCA1 111955Z 34014G21KT 11/M06 A3023 RMK A01 T01121057  RH  030%=      5-min Rain = 0
KCA1 111956Z 33018G23KT 12/M06 A3023 RMK A01 T01181056  RH  029%=      5-min Rain = 0
KCA1 111957Z 33017G24KT 11/M06 A3023 RMK A01 T01141061  RH  029%=      5-min Rain = 0
KCA1 111958Z 33016KT 11/M06 A3023 RMK A01 T01121061  RH  029%=      5-min Rain = 0
KCA1 111959Z 33014KT 11/M06 A3023 RMK A01 T01121059  RH  030%=      5-min Rain = 0
KCA1 112000Z 34018KT 12/M06 A3023 RMK A01 T01161056  RH  029%=      5-min Rain = 0
KCA1 112001Z 35016KT 12/M06 A3023 RMK A01 T01151058  RH  029%=      5-min Rain = 0
KCA1 112002Z 34016G22KT 12/M06 A3023 RMK A01 T01151058  RH  029%=      5-min Rain = 0
KCA1 112003Z 35016G23KT 12/M06 A3024 RMK A01 T01161058  RH  029%=      5-min Rain = 0
KCA1 112004Z 35018KT 12/M06 A3024 RMK A01 T01171058  RH  029%=      5-min Rain = 0
KCA1 112005Z 35015KT 11/M06 A3024 RMK A01 T01141059  RH  029%=      5-min Rain = 0
KCA1 112006Z 35015KT 11/M06 A3023 RMK A01 T01141058  RH  030%=      5-min Rain = 0
KCA1 112007Z 35012G17KT 11/M06 A3023 RMK A01 T01131059  RH  029%=      5-min Rain = 0
KCA1 112008Z 00011G16KT 11/M06 A3023 RMK A01 T01131059  RH  030%=      5-min Rain = 0
KCA1 112009Z 35012G17KT 11/M06 A3023 RMK A01 T01111059  RH  030%=      5-min Rain = 0
KCA1 112010Z 34013G21KT 11/M06 A3023 RMK A01 T01121057  RH  030%=      5-min Rain = 0
KCA1 112011Z 36018G23KT 12/M05 A3023 RMK A01 T01181054  RH  030%=      5-min Rain = 0
KCA1 112012Z 36017KT 12/M06 A3023 RMK A01 T01161057  RH  029%=      5-min Rain = 0
KCA1 112013Z 35017KT 12/M06 A3023 RMK A01 T01161056  RH  030%=      5-min Rain = 0
KCA1 112014Z 35016KT 12/M06 A3023 RMK A01 T01151057  RH  029%=      5-min Rain = 0
KCA1 112015Z 35017KT 11/M06 A3023 RMK A01 T01141057  RH  030%=      5-min Rain = 0
KCA1 112016Z 34017KT 12/M06 A3023 RMK A01 T01151057  RH  030%=      5-min Rain = 0
KCA1 112017Z 34016KT 12/M06 A3023 RMK A01 T01161056  RH  029%=      5-min Rain = 0
KCA1 112018Z 34013KT 12/M06 A3023 RMK A01 T01171057  RH  029%=      5-min Rain = 0
KCA1 112019Z 33017KT 12/M06 A3023 RMK A01 T01191056  RH  029%=      5-min Rain = 0
KCA1 112020Z 33015KT 12/M06 A3023 RMK A01 T01181058  RH  029%=      5-min Rain = 0
KCA1 112021Z 35017G22KT 12/M06 A3023 RMK A01 T01161057  RH  029%=      5-min Rain = 0
KCA1 112022Z 00021KT 12/M06 A3023 RMK A01 T01181057  RH  029%=      5-min Rain = 0
KCA1 112023Z 01022KT 12/M06 A3023 RMK A01 T01171057  RH  029%=      5-min Rain = 0
KCA1 112024Z 01020KT 11/M06 A3023 RMK A01 T01141058  RH  029%=      5-min Rain = 0
KCA1 112025Z 01019KT 11/M06 A3023 RMK A01 T01121057  RH  030%=      5-min Rain = 0
KCA1 112026Z 01019KT 11/M06 A3023 RMK A01 T01121057  RH  030%=      5-min Rain = 0
KCA1 112027Z 02016KT 11/M06 A3023 RMK A01 T01131056  RH  030%=      5-min Rain = 0
KCA1 112028Z 00020G27KT 11/M06 A3023 RMK A01 T01111058  RH  030%=      5-min Rain = 0
KCA1 112029Z 35022G27KT 11/M06 A3023 RMK A01 T01101057  RH  030%=      5-min Rain = 0
KCA1 112030Z 36017KT 11/M06 A3023 RMK A01 T01111057  RH  030%=      5-min Rain = 0
KCA1 112031Z 01020KT 11/M06 A3023 RMK A01 T01131056  RH  030%=      5-min Rain = 0
KCA1 112032Z 02019KT 11/M06 A3023 RMK A01 T01141057  RH  030%=      5-min Rain = 0
KCA1 112033Z 01015KT 11/M06 A3023 RMK A01 T01121057  RH  030%=      5-min Rain = 0
KCA1 112034Z 01016KT 11/M06 A3023 RMK A01 T01131056  RH  030%=      5-min Rain = 0
KCA1 112035Z 35015KT 11/M06 A3023 RMK A01 T01141056  RH  030%=      5-min Rain = 0
KCA1 112036Z 34018G25KT 12/M06 A3023 RMK A01 T01171055  RH  029%=      5-min Rain = 0
KCA1 112037Z 00016G24KT 12/M06 A3023 RMK A01 T01181056  RH  029%=      5-min Rain = 0
KCA1 112038Z 01017KT 12/M05 A3023 RMK A01 T01201054  RH  029%=      5-min Rain = 0
KCA1 112039Z 36016KT 12/M06 A3023 RMK A01 T01201057  RH  029%=      5-min Rain = 0
KCA1 112040Z 36016KT 12/M06 A3023 RMK A01 T01181058  RH  029%=      5-min Rain = 0
KCA1 112041Z 34012KT 12/M06 A3023 RMK A01 T01181058  RH  029%=      5-min Rain = 0
KCA1 112042Z 36013G18KT 12/M06 A3023 RMK A01 T01191057  RH  029%=      5-min Rain = 0
KCA1 112043Z 35016KT 12/M06 A3023 RMK A01 T01191056  RH  029%=      5-min Rain = 0
KCA1 112044Z 36019KT 12/M05 A3023 RMK A01 T01221054  RH  029%=      5-min Rain = 0
KCA1 112045Z 00018KT 12/M06 A3023 RMK A01 T01211056  RH  029%=      5-min Rain = 0
KCA1 112046Z 36011KT 12/M06 A3023 RMK A01 T01161058  RH  029%=      5-min Rain = 0
KCA1 112047Z 36010KT 12/M06 A3023 RMK A01 T01171055  RH  030%=      5-min Rain = 0
KCA1 112048Z 35014KT 12/M06 A3023 RMK A01 T01191056  RH  029%=      5-min Rain = 0
KCA1 112049Z 36016KT 12/M06 A3023 RMK A01 T01191055  RH  029%=      5-min Rain = 0
KCA1 112050Z 01016KT 12/M06 A3023 RMK A01 T01191056  RH  029%=      5-min Rain = 0
KCA1 112051Z 01017KT 12/M06 A3023 RMK A01 T01161056  RH  029%=      5-min Rain = 0
KCA1 112052Z 01016KT 12/M06 A3023 RMK A01 T01151056  RH  030%=      5-min Rain = 0
KCA1 112053Z 00016KT 11/M06 A3023 RMK A01 T01141056  RH  030%=      5-min Rain = 0
KCA1 112054Z 00022KT 11/M06 A3023 RMK A01 T01131056  RH  030%=      5-min Rain = 0
KCA1 112055Z 35019KT 12/M05 A3023 RMK A01 T01151054  RH  030%=      5-min Rain = 0
KCA1 112056Z 34016KT 12/M06 A3023 RMK A01 T01181055  RH  029%=      5-min Rain = 0
KCA1 112057Z 35013KT 12/M06 A3023 RMK A01 T01151056  RH  030%=      5-min Rain = 0
KCA1 112058Z 36016G21KT 12/M05 A3023 RMK A01 T01171054  RH  030%=      5-min Rain = 0
KCA1 112059Z 36019KT 12/M05 A3023 RMK A01 T01201053  RH  029%=      5-min Rain = 0
KCA1 112100Z 00015KT 12/M06 A3023 RMK A01 T01171055  RH  030%=      5-min Rain = 0
KCA1 112101Z 01015KT 12/M05 A3023 RMK A01 T01171054  RH  030%=      5-min Rain = 0
KCA1 112102Z 36018KT 12/M05 A3023 RMK A01 T01171054  RH  030%=      5-min Rain = 0
KCA1 112103Z 35017KT 12/M05 A3023 RMK A01 T01171054  RH  030%=      5-min Rain = 0
KCA1 112104Z 34016G25KT 12/M06 A3023 RMK A01 T01161055  RH  030%=      5-min Rain = 0
KCA1 112105Z 01019G25KT 12/M05 A3023 RMK A01 T01171054  RH  030%=      5-min Rain = 0
KCA1 112106Z 01019KT 12/M05 A3023 RMK A01 T01191054  RH  029%=      5-min Rain = 0
KCA1 112107Z 01020KT 12/M05 A3023 RMK A01 T01201054  RH  029%=      5-min Rain = 0
KCA1 112108Z 01021KT 12/M06 A3023 RMK A01 T01171055  RH  029%=      5-min Rain = 0
KCA1 112109Z 36017KT 11/M06 A3023 RMK A01 T01141056  RH  030%=      5-min Rain = 0
KCA1 112110Z 01018KT 11/M05 A3023 RMK A01 T01141054  RH  030%=      5-min Rain = 0
KCA1 112111Z 01018KT 11/M06 A3023 RMK A01 T01141055  RH  030%=      5-min Rain = 0
KCA1 112112Z 01014G21KT 11/M05 A3023 RMK A01 T01141054  RH  030%=      5-min Rain = 0
KCA1 112113Z 01014KT 11/M05 A3023 RMK A01 T01141054  RH  030%=      5-min Rain = 0
KCA1 112114Z 00012KT 12/M05 A3023 RMK A01 T01171053  RH  030%=      5-min Rain = 0
KCA1 112115Z 36016G21KT 12/M05 A3023 RMK A01 T01191054  RH  029%=      5-min Rain = 0
KCA1 112116Z 35017KT 12/M05 A3023 RMK A01 T01181054  RH  030%=      5-min Rain = 0
KCA1 112117Z 34017KT 12/M05 A3023 RMK A01 T01191053  RH  030%=      5-min Rain = 0
KCA1 112118Z 36014KT 12/M05 A3023 RMK A01 T01191054  RH  029%=      5-min Rain = 0
KCA1 112119Z 02016KT 12/M06 A3023 RMK A01 T01181055  RH  029%=      5-min Rain = 0
KCA1 112120Z 01017KT 12/M05 A3024 RMK A01 T01181054  RH  030%=      5-min Rain = 0
KCA1 112121Z 02017KT 12/M05 A3023 RMK A01 T01181054  RH  030%=      5-min Rain = 0
KCA1 112122Z 02019KT 12/M05 A3024 RMK A01 T01181054  RH  030%=      5-min Rain = 0
KCA1 112123Z 01020KT 12/M05 A3024 RMK A01 T01171054  RH  030%=      5-min Rain = 0
KCA1 112124Z 01016KT 12/M05 A3024 RMK A01 T01151054  RH  030%=      5-min Rain = 0
KCA1 112125Z 01012KT 11/M05 A3024 RMK A01 T01121054  RH  031%=      5-min Rain = 0
KCA1 112126Z 01015G20KT 11/M05 A3024 RMK A01 T01121053  RH  031%=      5-min Rain = 0
KCA1 112127Z 01017G23KT 11/M05 A3024 RMK A01 T01121053  RH  031%=      5-min Rain = 0
KCA1 112128Z 01017KT 11/M05 A3024 RMK A01 T01101053  RH  031%=      5-min Rain = 0
KCA1 112129Z 01015KT 11/M05 A3024 RMK A01 T01101053  RH  032%=      5-min Rain = 0
KCA1 112130Z 01015KT 11/M05 A3024 RMK A01 T01091053  RH  032%=      5-min Rain = 0
KCA1 112131Z 00014KT 11/M05 A3024 RMK A01 T01091053  RH  032%=      5-min Rain = 0
KCA1 112132Z 36012KT 11/M05 A3024 RMK A01 T01101052  RH  032%=      5-min Rain = 0
KCA1 112133Z 36009KT 11/M05 A3024 RMK A01 T01121051  RH  031%=      5-min Rain = 0
KCA1 112134Z 02010KT 11/M05 A3024 RMK A01 T01141051  RH  031%=      5-min Rain = 0
KCA1 112135Z 02012KT 12/M05 A3024 RMK A01 T01151051  RH  031%=      5-min Rain = 0
KCA1 112136Z 01015KT 12/M05 A3024 RMK A01 T01151052  RH  031%=      5-min Rain = 0
KCA1 112137Z 01011KT 12/M05 A3024 RMK A01 T01151052  RH  031%=      5-min Rain = 0
KCA1 112138Z 00010KT 11/M05 A3024 RMK A01 T01141052  RH  031%=      5-min Rain = 0
KCA1 112139Z 00013KT 11/M05 A3024 RMK A01 T01141052  RH  031%=      5-min Rain = 0
KCA1 112140Z 01011KT 11/M05 A3024 RMK A01 T01131052  RH  031%=      5-min Rain = 0
KCA1 112141Z 03013KT 12/M05 A3024 RMK A01 T01151051  RH  031%=      5-min Rain = 0
KCA1 112142Z 01013KT 12/M05 A3024 RMK A01 T01151051  RH  031%=      5-min Rain = 0
KCA1 112143Z 03011KT 12/M05 A3024 RMK A01 T01151052  RH  031%=      5-min Rain = 0
KCA1 112144Z 00013G18KT 12/M05 A3024 RMK A01 T01161051  RH  031%=      5-min Rain = 0
KCA1 112145Z 00016KT 12/M05 A3024 RMK A01 T01151053  RH  031%=      5-min Rain = 0
KCA1 112146Z 36014KT 11/M05 A3024 RMK A01 T01131053  RH  031%=      5-min Rain = 0
KCA1 112147Z 36013KT 11/M05 A3024 RMK A01 T01131052  RH  031%=      5-min Rain = 0
KCA1 112148Z 35012KT 11/M05 A3024 RMK A01 T01121053  RH  031%=      5-min Rain = 0
KCA1 112149Z 35011KT 11/M05 A3024 RMK A01 T01101053  RH  031%=      5-min Rain = 0
KCA1 112150Z 34011KT 11/M05 A3024 RMK A01 T01111051  RH  032%=      5-min Rain = 0
KCA1 112151Z 01014KT 11/M05 A3024 RMK A01 T01121051  RH  031%=      5-min Rain = 0
KCA1 112152Z 35012KT 11/M05 A3024 RMK A01 T01141051  RH  031%=      5-min Rain = 0
KCA1 112153Z 36011KT 12/M05 A3024 RMK A01 T01151052  RH  031%=      5-min Rain = 0
KCA1 112154Z 00013KT 11/M05 A3024 RMK A01 T01141052  RH  031%=      5-min Rain = 0
KCA1 112155Z 00015KT 12/M05 A3024 RMK A01 T01161050  RH  031%=      5-min Rain = 0
KCA1 112156Z 00019KT 12/M05 A3024 RMK A01 T01181051  RH  030%=      5-min Rain = 0
KCA1 112157Z 02015KT 12/M05 A3024 RMK A01 T01171052  RH  030%=      5-min Rain = 0
KCA1 112158Z 01017KT 12/M05 A3024 RMK A01 T01191051  RH  030%=      5-min Rain = 0
KCA1 112159Z 01017KT 12/M05 A3024 RMK A01 T01191053  RH  030%=      5-min Rain = 0
KCA1 112200Z 01016KT 12/M05 A3024 RMK A01 T01191053  RH  030%=      5-min Rain = 0
KCA1 112201Z 00013KT 12/M05 A3024 RMK A01 T01181052  RH  030%=      5-min Rain = 0
KCA1 112202Z 01013KT 12/M05 A3024 RMK A01 T01171052  RH  030%=      5-min Rain = 0
KCA1 112203Z 00011KT 12/M05 A3023 RMK A01 T01181051  RH  030%=      5-min Rain = 0
KCA1 112204Z 02011KT 12/M05 A3023 RMK A01 T01201049  RH  030%=      5-min Rain = 0
KCA1 112205Z 36013KT 12/M05 A3023 RMK A01 T01241049  RH  030%=      5-min Rain = 0
KCA1 112206Z 35010KT 12/M05 A3023 RMK A01 T01231050  RH  029%=      5-min Rain = 0
KCA1 112207Z 02009KT 12/M05 A3023 RMK A01 T01221050  RH  030%=      5-min Rain = 0
KCA1 112208Z 02011KT 12/M05 A3023 RMK A01 T01241049  RH  029%=      5-min Rain = 0
KCA1 112209Z 01014KT 12/M05 A3023 RMK A01 T01231050  RH  029%=      5-min Rain = 0
KCA1 112210Z 00018KT 12/M05 A3023 RMK A01 T01201052  RH  030%=      5-min Rain = 0
KCA1 112211Z 00016KT 12/M05 A3023 RMK A01 T01191052  RH  030%=      5-min Rain = 0
KCA1 112212Z 00013KT 12/M05 A3023 RMK A01 T01181052  RH  030%=      5-min Rain = 0
KCA1 112213Z 36014KT 12/M05 A3024 RMK A01 T01191050  RH  030%=      5-min Rain = 0
KCA1 112214Z 00015KT 12/M05 A3024 RMK A01 T01211051  RH  030%=      5-min Rain = 0
KCA1 112215Z 01014KT 12/M05 A3024 RMK A01 T01201053  RH  030%=      5-min Rain = 0
KCA1 112216Z 01013KT 12/M05 A3024 RMK A01 T01161053  RH  030%=      5-min Rain = 0
KCA1 112217Z 01011KT 11/M05 A3024 RMK A01 T01131053  RH  031%=      5-min Rain = 0
KCA1 112218Z 00013KT 11/M05 A3023 RMK A01 T01141052  RH  031%=      5-min Rain = 0
KCA1 112219Z 01014KT 11/M05 A3023 RMK A01 T01141052  RH  031%=      5-min Rain = 0
KCA1 112220Z 01012KT 11/M05 A3024 RMK A01 T01141052  RH  031%=      5-min Rain = 0
KCA1 112221Z 36013G18KT 11/M05 A3024 RMK A01 T01141052  RH  031%=      5-min Rain = 0
KCA1 112222Z 36013KT 12/M05 A3024 RMK A01 T01151052  RH  031%=      5-min Rain = 0
KCA1 112223Z 01014KT 12/M05 A3024 RMK A01 T01151052  RH  031%=      5-min Rain = 0
KCA1 112224Z 01016KT 12/M05 A3024 RMK A01 T01151052  RH  031%=      5-min Rain = 0
KCA1 112225Z 02015KT 11/M05 A3024 RMK A01 T01141053  RH  031%=      5-min Rain = 0
KCA1 112226Z 00013KT 11/M05 A3024 RMK A01 T01131053  RH  031%=      5-min Rain = 0
KCA1 112227Z 00013KT 11/M05 A3024 RMK A01 T01131052  RH  031%=      5-min Rain = 0
KCA1 112228Z 02014KT 11/M05 A3024 RMK A01 T01131052  RH  031%=      5-min Rain = 0
KCA1 112229Z 01014KT 11/M05 A3024 RMK A01 T01131052  RH  031%=      5-min Rain = 0
KCA1 112230Z 36009KT 11/M05 A3024 RMK A01 T01131053  RH  031%=      5-min Rain = 0
KCA1 112231Z 01012KT 11/M05 A3024 RMK A01 T01131052  RH  031%=      5-min Rain = 0
KCA1 112232Z 00016G21KT 11/M05 A3024 RMK A01 T01141051  RH  031%=      5-min Rain = 0
KCA1 112233Z 01017KT 11/M05 A3024 RMK A01 T01141051  RH  031%=      5-min Rain = 0
KCA1 112234Z 01014G19KT 11/M05 A3024 RMK A01 T01141052  RH  031%=      5-min Rain = 0
KCA1 112235Z 01014KT 12/M05 A3024 RMK A01 T01151050  RH  031%=      5-min Rain = 0
KCA1 112236Z 01016KT 12/M05 A3024 RMK A01 T01181050  RH  030%=      5-min Rain = 0
KCA1 112237Z 01012KT 12/M05 A3024 RMK A01 T01161052  RH  030%=      5-min Rain = 0
KCA1 112238Z 01013KT 12/M05 A3024 RMK A01 T01151052  RH  031%=      5-min Rain = 0
KCA1 112239Z 01014KT 11/M05 A3024 RMK A01 T01141052  RH  031%=      5-min Rain = 0
KCA1 112240Z 01015KT 11/M05 A3024 RMK A01 T01121052  RH  031%=      5-min Rain = 0
KCA1 112241Z 02014KT 11/M05 A3024 RMK A01 T01131051  RH  031%=      5-min Rain = 0
KCA1 112242Z 02016KT 11/M05 A3024 RMK A01 T01141051  RH  031%=      5-min Rain = 0
KCA1 112243Z 01016KT 11/M05 A3024 RMK A01 T01131052  RH  031%=      5-min Rain = 0
KCA1 112244Z 02013KT 11/M05 A3024 RMK A01 T01121052  RH  031%=      5-min Rain = 0
KCA1 112245Z 01011KT 11/M05 A3024 RMK A01 T01121052  RH  031%=      5-min Rain = 0
KCA1 112246Z 01009KT 11/M05 A3024 RMK A01 T01121051  RH  031%=      5-min Rain = 0
KCA1 112247Z 01012KT 11/M05 A3024 RMK A01 T01131051  RH  031%=      5-min Rain = 0
KCA1 112248Z 01015KT 11/M05 A3024 RMK A01 T01141051  RH  031%=      5-min Rain = 0
KCA1 112249Z 02014KT 12/M05 A3024 RMK A01 T01151051  RH  031%=      5-min Rain = 0
KCA1 112250Z 02014KT 12/M05 A3024 RMK A01 T01151051  RH  031%=      5-min Rain = 0
KCA1 112251Z 36012KT 12/M05 A3024 RMK A01 T01161050  RH  031%=      5-min Rain = 0
KCA1 112252Z 00012KT 12/M05 A3024 RMK A01 T01161050  RH  031%=      5-min Rain = 0
KCA1 112253Z 36011KT 12/M05 A3025 RMK A01 T01161049  RH  031%=      5-min Rain = 0
KCA1 112254Z 00015KT 12/M05 A3025 RMK A01 T01161049  RH  031%=      5-min Rain = 0
KCA1 112255Z 00015KT 12/M05 A3025 RMK A01 T01151049  RH  031%=      5-min Rain = 0
KCA1 112256Z 00013KT 11/M05 A3025 RMK A01 T01131050  RH  031%=      5-min Rain = 0
KCA1 112257Z 00009KT 11/M05 A3025 RMK A01 T01111050  RH  032%=      5-min Rain = 0
KCA1 112258Z 01012KT 11/M05 A3024 RMK A01 T01111049  RH  032%=      5-min Rain = 0
KCA1 112259Z 01015KT 11/M05 A3024 RMK A01 T01111049  RH  032%=      5-min Rain = 0
KCA1 112300Z 36013KT 11/M05 A3024 RMK A01 T01101050  RH  032%=      5-min Rain = 0
KCA1 112301Z 35014KT 11/M05 A3024 RMK A01 T01091050  RH  032%=      5-min Rain = 0
KCA1 112302Z 35015KT 11/M05 A3024 RMK A01 T01091049  RH  032%=      5-min Rain = 0
KCA1 112303Z 34013KT 11/M05 A3024 RMK A01 T01091049  RH  033%=      5-min Rain = 0
KCA1 112304Z 35012KT 11/M05 A3024 RMK A01 T01091049  RH  033%=      5-min Rain = 0
KCA1 112305Z 00010KT 11/M05 A3024 RMK A01 T01101048  RH  033%=      5-min Rain = 0
KCA1 112306Z 02012KT 11/M05 A3024 RMK A01 T01101048  RH  033%=      5-min Rain = 0
KCA1 112307Z 02013KT 11/M05 A3024 RMK A01 T01111048  RH  032%=      5-min Rain = 0
KCA1 112308Z 02012G17KT 11/M05 A3025 RMK A01 T01111048  RH  032%=      5-min Rain = 0
KCA1 112309Z 36016KT 11/M05 A3024 RMK A01 T01111048  RH  033%=      5-min Rain = 0
KCA1 112310Z 01014KT 11/M05 A3025 RMK A01 T01121047  RH  032%=      5-min Rain = 0
KCA1 112311Z 01011KT 11/M05 A3024 RMK A01 T01131047  RH  032%=      5-min Rain = 0
KCA1 112312Z 01010KT 11/M05 A3024 RMK A01 T01131047  RH  032%=      5-min Rain = 0
KCA1 112313Z 00011KT 11/M05 A3025 RMK A01 T01131047  RH  032%=      5-min Rain = 0
KCA1 112314Z 00015KT 11/M05 A3025 RMK A01 T01141046  RH  032%=      5-min Rain = 0
KCA1 112315Z 35013KT 12/M05 A3025 RMK A01 T01151047  RH  032%=      5-min Rain = 0
KCA1 112316Z 00014KT 11/M05 A3025 RMK A01 T01141047  RH  032%=      5-min Rain = 0
KCA1 112317Z 00013KT 11/M05 A3025 RMK A01 T01141046  RH  032%=      5-min Rain = 0
KCA1 112318Z 36014KT 11/M05 A3025 RMK A01 T01131047  RH  032%=      5-min Rain = 0
KCA1 112319Z 01012KT 11/M05 A3025 RMK A01 T01121047  RH  033%=      5-min Rain = 0
KCA1 112320Z 03010KT 11/M05 A3025 RMK A01 T01131046  RH  033%=      5-min Rain = 0
KCA1 112321Z 02012G17KT 12/M04 A3025 RMK A01 T01151044  RH  032%=      5-min Rain = 0
KCA1 112322Z 02016KT 12/M05 A3025 RMK A01 T01151045  RH  032%=      5-min Rain = 0
KCA1 112323Z 01014KT 11/M05 A3025 RMK A01 T01131046  RH  032%=      5-min Rain = 0
KCA1 112324Z 01014KT 11/M05 A3025 RMK A01 T01121046  RH  033%=      5-min Rain = 0
KCA1 112325Z 01014KT 11/M05 A3025 RMK A01 T01111046  RH  033%=      5-min Rain = 0
KCA1 112326Z 00014KT 11/M05 A3025 RMK A01 T01101046  RH  033%=      5-min Rain = 0
KCA1 112327Z 00012KT 11/M05 A3025 RMK A01 T01091047  RH  033%=      5-min Rain = 0
KCA1 112328Z 01010KT 11/M05 A3025 RMK A01 T01091046  RH  034%=      5-min Rain = 0
KCA1 112329Z 03014KT 11/M05 A3025 RMK A01 T01101045  RH  033%=      5-min Rain = 0
KCA1 112330Z 03015KT 11/M05 A3025 RMK A01 T01101045  RH  033%=      5-min Rain = 0
KCA1 112331Z 02015KT 11/M05 A3025 RMK A01 T01091046  RH  033%=      5-min Rain = 0
KCA1 112332Z 03013KT 11/M05 A3025 RMK A01 T01071046  RH  034%=      5-min Rain = 0
KCA1 112333Z 03013KT 11/M05 A3025 RMK A01 T01071045  RH  034%=      5-min Rain = 0
KCA1 112334Z 02014KT 11/M05 A3026 RMK A01 T01071045  RH  034%=      5-min Rain = 0
KCA1 112335Z 02013KT 11/M05 A3026 RMK A01 T01061046  RH  034%=      5-min Rain = 0
KCA1 112336Z 02012KT 11/M05 A3026 RMK A01 T01051046  RH  034%=      5-min Rain = 0
KCA1 112337Z 01011KT 11/M05 A3026 RMK A01 T01051046  RH  034%=      5-min Rain = 0
KCA1 112338Z 01011KT 11/M05 A3026 RMK A01 T01051046  RH  034%=      5-min Rain = 0
KCA1 112339Z 01009KT 11/M05 A3026 RMK A01 T01051046  RH  034%=      5-min Rain = 0
KCA1 112340Z 01010KT 11/M05 A3026 RMK A01 T01051046  RH  034%=      5-min Rain = 0
KCA1 112341Z 00009KT 11/M05 A3026 RMK A01 T01051046  RH  035%=      5-min Rain = 0
KCA1 112342Z 01010KT 11/M05 A3026 RMK A01 T01051045  RH  035%=      5-min Rain = 0
KCA1 112343Z 01013KT 11/M05 A3026 RMK A01 T01051045  RH  034%=      5-min Rain = 0
KCA1 112344Z 01013KT 11/M05 A3026 RMK A01 T01061045  RH  034%=      5-min Rain = 0
KCA1 112345Z 01012KT 11/M05 A3026 RMK A01 T01051045  RH  034%=      5-min Rain = 0
KCA1 112346Z 01011KT 11/M05 A3026 RMK A01 T01051045  RH  035%=      5-min Rain = 0
KCA1 112347Z 01009KT 10/M05 A3026 RMK A01 T01041045  RH  035%=      5-min Rain = 0
KCA1 112348Z 03007KT 10/M05 A3026 RMK A01 T01041045  RH  035%=      5-min Rain = 0
KCA1 112349Z 03009KT 10/M04 A3026 RMK A01 T01041044  RH  035%=      5-min Rain = 0
KCA1 112350Z 02008KT 10/M05 A3026 RMK A01 T01021045  RH  035%=      5-min Rain = 0
KCA1 112351Z 02009KT 10/M05 A3026 RMK A01 T01011045  RH  035%=      5-min Rain = 0
KCA1 112352Z 01012KT 10/M05 A3026 RMK A01 T01001045  RH  036%=      5-min Rain = 0
KCA1 112353Z 02010KT 10/M04 A3026 RMK A01 T01001044  RH  036%=      5-min Rain = 0
KCA1 112354Z 01010KT 10/M05 A3026 RMK A01 T00991045  RH  036%=      5-min Rain = 0
KCA1 112355Z 02010KT 10/M05 A3026 RMK A01 T00991045  RH  036%=      5-min Rain = 0
KCA1 112356Z 02007KT 10/M04 A3026 RMK A01 T00991044  RH  036%=      5-min Rain = 0
KCA1 112357Z 02006KT 10/M05 A3026 RMK A01 T00981045  RH  036%=      5-min Rain = 0
KCA1 112358Z 02007KT 10/M05 A3026 RMK A01 T00971045  RH  036%=      5-min Rain = 0
KCA1 112359Z 03007KT 10/M05 A3026 RMK A01 T00961045  RH  037%=      5-min Rain = 0
KCA1 120000Z 03008KT 10/M04 A3026 RMK A01 T00961044  RH  037%=      5-min Rain = 0
KCA1 120001Z 02009KT 10/M04 A3026 RMK A01 T00951044  RH  037%=      5-min Rain = 0
KCA1 120002Z 02008KT 10/M05 A3026 RMK A01 T00951045  RH  037%=      5-min Rain = 0
KCA1 120003Z 02009KT 10/M04 A3026 RMK A01 T00961044  RH  037%=      5-min Rain = 0
KCA1 120004Z 02009KT 10/M04 A3027 RMK A01 T00951044  RH  037%=      5-min Rain = 0
KCA1 120005Z 01008KT 10/M05 A3027 RMK A01 T00951045  RH  037%=      5-min Rain = 0
KCA1 120006Z 01009KT 09/M05 A3027 RMK A01 T00941045  RH  037%=      5-min Rain = 0
KCA1 120007Z 02008KT 09/M05 A3027 RMK A01 T00941045  RH  037%=      5-min Rain = 0
KCA1 120008Z 02009KT 09/M05 A3027 RMK A01 T00931045  RH  037%=      5-min Rain = 0
KCA1 120009Z 01010KT 09/M05 A3027 RMK A01 T00931046  RH  037%=      5-min Rain = 0
KCA1 120010Z 01010KT 09/M05 A3027 RMK A01 T00931046  RH  037%=      5-min Rain = 0
KCA1 120011Z 01009KT 09/M05 A3027 RMK A01 T00931046  RH  037%=      5-min Rain = 0
KCA1 120012Z 01009KT 09/M05 A3027 RMK A01 T00941046  RH  037%=      5-min Rain = 0
KCA1 120013Z 01008KT 09/M05 A3027 RMK A01 T00941046  RH  037%=      5-min Rain = 0
KCA1 120014Z 02009KT 09/M05 A3027 RMK A01 T00941046  RH  037%=      5-min Rain = 0
KCA1 120015Z 02009KT 09/M05 A3027 RMK A01 T00941045  RH  037%=      5-min Rain = 0
KCA1 120016Z 02010KT 10/M05 A3027 RMK A01 T00951045  RH  037%=      5-min Rain = 0
KCA1 120017Z 02011KT 10/M05 A3027 RMK A01 T00951045  RH  037%=      5-min Rain = 0
KCA1 120018Z 02009KT 10/M04 A3027 RMK A01 T00951044  RH  037%=      5-min Rain = 0
KCA1 120019Z 02008KT 10/M04 A3027 RMK A01 T00951044  RH  037%=      5-min Rain = 0
KCA1 120020Z 02007KT 09/M04 A3027 RMK A01 T00941044  RH  037%=      5-min Rain = 0
KCA1 120021Z 02008KT 09/M05 A3027 RMK A01 T00931045  RH  037%=      5-min Rain = 0
KCA1 120022Z 02008KT 09/M04 A3027 RMK A01 T00931044  RH  038%=      5-min Rain = 0
KCA1 120023Z 03008KT 09/M04 A3028 RMK A01 T00921044  RH  038%=      5-min Rain = 0
KCA1 120024Z 02008KT 09/M04 A3028 RMK A01 T00911044  RH  038%=      5-min Rain = 0
KCA1 120025Z 02008KT 09/M04 A3028 RMK A01 T00911044  RH  038%=      5-min Rain = 0
KCA1 120026Z 02007KT 09/M04 A3028 RMK A01 T00901044  RH  038%=      5-min Rain = 0
KCA1 120027Z 02008KT 09/M04 A3028 RMK A01 T00901044  RH  038%=      5-min Rain = 0
KCA1 120028Z 02008KT 09/M05 A3028 RMK A01 T00891045  RH  038%=      5-min Rain = 0
KCA1 120029Z 02007KT 09/M05 A3028 RMK A01 T00891045  RH  039%=      5-min Rain = 0
KCA1 120030Z 02007KT 09/M05 A3028 RMK A01 T00881045  RH  039%=      5-min Rain = 0
KCA1 120031Z 02009KT 09/M05 A3028 RMK A01 T00881045  RH  039%=      5-min Rain = 0
KCA1 120032Z 02009KT 09/M05 A3028 RMK A01 T00881045  RH  039%=      5-min Rain = 0
KCA1 120033Z 02009KT 09/M04 A3028 RMK A01 T00881044  RH  039%=      5-min Rain = 0
KCA1 120034Z 02008KT 09/M05 A3028 RMK A01 T00871045  RH  039%=      5-min Rain = 0
KCA1 120035Z 02008KT 09/M05 A3028 RMK A01 T00861045  RH  039%=      5-min Rain = 0
KCA1 120036Z 02008KT 09/M05 A3028 RMK A01 T00851045  RH  039%=      5-min Rain = 0
KCA1 120037Z 02008KT 08/M05 A3028 RMK A01 T00841046  RH  039%=      5-min Rain = 0
KCA1 120038Z 02008KT 08/M05 A3028 RMK A01 T00841045  RH  040%=      5-min Rain = 0
KCA1 120039Z 02008KT 08/M05 A3028 RMK A01 T00831045  RH  040%=      5-min Rain = 0
KCA1 120040Z 02008KT 08/M05 A3028 RMK A01 T00821046  RH  040%=      5-min Rain = 0
KCA1 120041Z 02008KT 08/M05 A3028 RMK A01 T00811046  RH  040%=      5-min Rain = 0
KCA1 120042Z 02007KT 08/M05 A3028 RMK A01 T00801047  RH  040%=      5-min Rain = 0
KCA1 120043Z 02007KT 08/M05 A3028 RMK A01 T00791047  RH  041%=      5-min Rain = 0
KCA1 120044Z 02008KT 08/M05 A3028 RMK A01 T00771046  RH  041%=      5-min Rain = 0
KCA1 120045Z 02007KT 08/M05 A3028 RMK A01 T00761046  RH  041%=      5-min Rain = 0
KCA1 120046Z 02008KT 08/M05 A3028 RMK A01 T00761047  RH  041%=      5-min Rain = 0
KCA1 120047Z 02008KT 08/M05 A3028 RMK A01 T00751047  RH  042%=      5-min Rain = 0
KCA1 120048Z 02008KT 07/M05 A3028 RMK A01 T00741047  RH  042%=      5-min Rain = 0
KCA1 120049Z 02008KT 07/M05 A3028 RMK A01 T00741048  RH  042%=      5-min Rain = 0
KCA1 120050Z 02008KT 07/M05 A3028 RMK A01 T00741047  RH  042%=      5-min Rain = 0
KCA1 120051Z 02008KT 07/M05 A3028 RMK A01 T00731047  RH  042%=      5-min Rain = 0
KCA1 120052Z 02008KT 07/M05 A3028 RMK A01 T00721047  RH  042%=      5-min Rain = 0
KCA1 120053Z 02008KT 07/M05 A3028 RMK A01 T00721047  RH  042%=      5-min Rain = 0
KCA1 120054Z 02008KT 07/M05 A3028 RMK A01 T00721047  RH  042%=      5-min Rain = 0
KCA1 120055Z 02008KT 07/M05 A3029 RMK A01 T00711048  RH  043%=      5-min Rain = 0
KCA1 120056Z 02008KT 07/M05 A3029 RMK A01 T00711048  RH  043%=      5-min Rain = 0
KCA1 120057Z 02008KT 07/M05 A3029 RMK A01 T00701048  RH  043%=      5-min Rain = 0
KCA1 120058Z 02008KT 07/M05 A3029 RMK A01 T00691048  RH  043%=      5-min Rain = 0
KCA1 120059Z 02009KT 07/M05 A3029 RMK A01 T00681048  RH  043%=      5-min Rain = 0
KCA1 120100Z 02008KT 07/M05 A3029 RMK A01 T00681048  RH  043%=      5-min Rain = 0
KCA1 120101Z 02008KT 07/M05 A3029 RMK A01 T00681048  RH  043%=      5-min Rain = 0
KCA1 120102Z 02008KT 07/M05 A3029 RMK A01 T00681048  RH  043%=      5-min Rain = 0
KCA1 120103Z 02008KT 07/M05 A3029 RMK A01 T00681048  RH  044%=      5-min Rain = 0
KCA1 120104Z 02008KT 07/M05 A3029 RMK A01 T00671048  RH  044%=      5-min Rain = 0
KCA1 120105Z 03008KT 07/M05 A3029 RMK A01 T00671048  RH  044%=      5-min Rain = 0
KCA1 120106Z 03008KT 07/M05 A3029 RMK A01 T00661048  RH  044%=      5-min Rain = 0
KCA1 120107Z 02007KT 07/M05 A3029 RMK A01 T00661048  RH  044%=      5-min Rain = 0
KCA1 120108Z 03008KT 07/M05 A3029 RMK A01 T00651049  RH  044%=      5-min Rain = 0
KCA1 120109Z 03008KT 06/M05 A3029 RMK A01 T00641049  RH  044%=      5-min Rain = 0
KCA1 120110Z 03008KT 06/M05 A3029 RMK A01 T00631049  RH  044%=      5-min Rain = 0
KCA1 120111Z 03008KT 06/M05 A3029 RMK A01 T00621049  RH  045%=      5-min Rain = 0
KCA1 120112Z 03008KT 06/M05 A3029 RMK A01 T00611049  RH  045%=      5-min Rain = 0
KCA1 120113Z 03008KT 06/M05 A3029 RMK A01 T00601050  RH  045%=      5-min Rain = 0
KCA1 120114Z 03008KT 06/M05 A3029 RMK A01 T00591050  RH  045%=      5-min Rain = 0
KCA1 120115Z 03008KT 06/M05 A3029 RMK A01 T00581051  RH  045%=      5-min Rain = 0
KCA1 120116Z 03008KT 06/M05 A3029 RMK A01 T00581051  RH  045%=      5-min Rain = 0
KCA1 120117Z 03008KT 06/M05 A3029 RMK A01 T00571052  RH  046%=      5-min Rain = 0
KCA1 120118Z 03008KT 06/M05 A3029 RMK A01 T00561052  RH  046%=      5-min Rain = 0
KCA1 120119Z 03008KT 06/M05 A303 RMK A01 T00551052  RH  046%=      5-min Rain = 0
KCA1 120120Z 03008KT 05/M05 A303 RMK A01 T00531053  RH  046%=      5-min Rain = 0
KCA1 120121Z 03008KT 05/M05 A303 RMK A01 T00521052  RH  047%=      5-min Rain = 0
KCA1 120122Z 03008KT 05/M05 A303 RMK A01 T00511052  RH  047%=      5-min Rain = 0
KCA1 120123Z 03008KT 05/M05 A303 RMK A01 T00501052  RH  048%=      5-min Rain = 0
KCA1 120124Z 03008KT 05/M05 A303 RMK A01 T00491052  RH  048%=      5-min Rain = 0
KCA1 120125Z 03008KT 05/M05 A303 RMK A01 T00481052  RH  048%=      5-min Rain = 0
KCA1 120126Z 03008KT 05/M05 A303 RMK A01 T00481052  RH  048%=      5-min Rain = 0
KCA1 120127Z 03008KT 05/M05 A303 RMK A01 T00481053  RH  048%=      5-min Rain = 0
KCA1 120128Z 03008KT 05/M05 A303 RMK A01 T00471054  RH  048%=      5-min Rain = 0
KCA1 120129Z 03008KT 05/M05 A303 RMK A01 T00461054  RH  048%=      5-min Rain = 0
KCA1 120130Z 03008KT 05/M05 A303 RMK A01 T00461054  RH  048%=      5-min Rain = 0
KCA1 120131Z 03008KT 05/M06 A303 RMK A01 T00451055  RH  048%=      5-min Rain = 0
KCA1 120132Z 03008KT 04/M06 A303 RMK A01 T00441055  RH  049%=      5-min Rain = 0
KCA1 120133Z 03008KT 04/M06 A303 RMK A01 T00431055  RH  049%=      5-min Rain = 0
KCA1 120134Z 03008KT 04/M05 A303 RMK A01 T00431054  RH  049%=      5-min Rain = 0
KCA1 120135Z 03008KT 04/M05 A303 RMK A01 T00431054  RH  049%=      5-min Rain = 0
KCA1 120136Z 03008KT 04/M05 A303 RMK A01 T00431054  RH  049%=      5-min Rain = 0
KCA1 120137Z 03008KT 04/M05 A303 RMK A01 T00431054  RH  049%=      5-min Rain = 0
KCA1 120138Z 03008KT 04/M05 A303 RMK A01 T00431054  RH  049%=      5-min Rain = 0
KCA1 120139Z 03007KT 04/M05 A303 RMK A01 T00431054  RH  049%=      5-min Rain = 0
KCA1 120140Z 03007KT 04/M05 A303 RMK A01 T00431054  RH  049%=      5-min Rain = 0
KCA1 120141Z 04007KT 04/M06 A303 RMK A01 T00421055  RH  049%=      5-min Rain = 0
KCA1 120142Z 04007KT 04/M06 A303 RMK A01 T00421055  RH  050%=      5-min Rain = 0
KCA1 120143Z 04007KT 04/M05 A303 RMK A01 T00411054  RH  050%=      5-min Rain = 0
KCA1 120144Z 04007KT 04/M05 A303 RMK A01 T00401054  RH  050%=      5-min Rain = 0
KCA1 120145Z 03008KT 04/M05 A303 RMK A01 T00401054  RH  050%=      5-min Rain = 0
KCA1 120146Z 03008KT 04/M05 A303 RMK A01 T00401053  RH  051%=      5-min Rain = 0
KCA1 120147Z 03008KT 04/M05 A303 RMK A01 T00391054  RH  051%=      5-min Rain = 0
KCA1 120148Z 03008KT 04/M05 A303 RMK A01 T00381054  RH  051%=      5-min Rain = 0
KCA1 120149Z 03008KT 04/M05 A303 RMK A01 T00381054  RH  051%=      5-min Rain = 0
KCA1 120150Z 03008KT 04/M05 A303 RMK A01 T00371054  RH  051%=      5-min Rain = 0
KCA1 120151Z 03008KT 04/M05 A303 RMK A01 T00371054  RH  051%=      5-min Rain = 0
KCA1 120152Z 03008KT 04/M05 A303 RMK A01 T00371054  RH  052%=      5-min Rain = 0
KCA1 120153Z 03009KT 04/M05 A303 RMK A01 T00361054  RH  052%=      5-min Rain = 0
KCA1 120154Z 03009KT 04/M05 A3031 RMK A01 T00361054  RH  052%=      5-min Rain = 0
KCA1 120155Z 03009KT 04/M05 A3031 RMK A01 T00361054  RH  052%=      5-min Rain = 0
KCA1 120156Z 03008KT 04/M05 A3031 RMK A01 T00351054  RH  052%=      5-min Rain = 0
KCA1 120157Z 03008KT 04/M05 A3031 RMK A01 T00351054  RH  052%=      5-min Rain = 0
KCA1 120158Z 03008KT 04/M05 A3031 RMK A01 T00351054  RH  052%=      5-min Rain = 0
KCA1 120159Z 03008KT 04/M05 A3031 RMK A01 T00351054  RH  052%=      5-min Rain = 0
KCA1 120200Z 03008KT 03/M05 A3031 RMK A01 T00341054  RH  052%=      5-min Rain = 0
KCA1 120201Z 03008KT 03/M06 A3031 RMK A01 T00341055  RH  052%=      5-min Rain = 0
KCA1 120202Z 03009KT 03/M06 A3031 RMK A01 T00331055  RH  052%=      5-min Rain = 0
KCA1 120203Z 03009KT 03/M06 A3031 RMK A01 T00331055  RH  053%=      5-min Rain = 0
KCA1 120204Z 03009KT 03/M06 A3031 RMK A01 T00321055  RH  053%=      5-min Rain = 0
KCA1 120205Z 03008KT 03/M06 A3031 RMK A01 T00321055  RH  053%=      5-min Rain = 0
KCA1 120206Z 03008KT 03/M06 A3031 RMK A01 T00311055  RH  053%=      5-min Rain = 0
KCA1 120207Z 03008KT 03/M06 A3031 RMK A01 T00301056  RH  053%=      5-min Rain = 0
KCA1 120208Z 03009KT 03/M06 A3031 RMK A01 T00291057  RH  053%=      5-min Rain = 0
KCA1 120209Z 03009KT 03/M06 A3031 RMK A01 T00291056  RH  054%=      5-min Rain = 0
KCA1 120210Z 03009KT 03/M06 A3031 RMK A01 T00281056  RH  054%=      5-min Rain = 0
KCA1 120211Z 03009KT 03/M06 A3031 RMK A01 T00281056  RH  054%=      5-min Rain = 0
KCA1 120212Z 03009KT 03/M06 A3031 RMK A01 T00281056  RH  054%=      5-min Rain = 0
KCA1 120213Z 03009KT 03/M06 A3031 RMK A01 T00281056  RH  054%=      5-min Rain = 0
KCA1 120214Z 03009KT 03/M06 A3031 RMK A01 T00271056  RH  054%=      5-min Rain = 0
KCA1 120215Z 03009KT 03/M06 A3031 RMK A01 T00281056  RH  054%=      5-min Rain = 0
KCA1 120216Z 03009KT 03/M06 A3031 RMK A01 T00281056  RH  054%=      5-min Rain = 0
KCA1 120217Z 03009KT 03/M06 A3031 RMK A01 T00271056  RH  054%=      5-min Rain = 0
KCA1 120218Z 03008KT 03/M06 A3031 RMK A01 T00271056  RH  054%=      5-min Rain = 0
KCA1 120219Z 03008KT 03/M06 A3031 RMK A01 T00271056  RH  054%=      5-min Rain = 0
KCA1 120220Z 03008KT 03/M06 A3031 RMK A01 T00271057  RH  054%=      5-min Rain = 0
KCA1 120221Z 03008KT 03/M06 A3032 RMK A01 T00261057  RH  054%=      5-min Rain = 0
KCA1 120222Z 03008KT 03/M06 A3032 RMK A01 T00261057  RH  055%=      5-min Rain = 0
KCA1 120223Z 03008KT 03/M06 A3032 RMK A01 T00261057  RH  055%=      5-min Rain = 0
KCA1 120224Z 03008KT 03/M06 A3032 RMK A01 T00251057  RH  055%=      5-min Rain = 0
KCA1 120225Z 03008KT 03/M06 A3032 RMK A01 T00251057  RH  055%=      5-min Rain = 0
KCA1 120226Z 03008KT 03/M06 A3032 RMK A01 T00251057  RH  055%=      5-min Rain = 0
KCA1 120227Z 03008KT 02/M06 A3032 RMK A01 T00241057  RH  055%=      5-min Rain = 0
KCA1 120228Z 03008KT 02/M06 A3032 RMK A01 T00241057  RH  055%=      5-min Rain = 0
KCA1 120229Z 03008KT 02/M06 A3032 RMK A01 T00241058  RH  055%=      5-min Rain = 0
KCA1 120230Z 03008KT 02/M06 A3032 RMK A01 T00241057  RH  055%=      5-min Rain = 0
KCA1 120231Z 03008KT 02/M06 A3032 RMK A01 T00241057  RH  055%=      5-min Rain = 0
KCA1 120232Z 03008KT 02/M06 A3032 RMK A01 T00241057  RH  055%=      5-min Rain = 0
KCA1 120233Z 03008KT 02/M06 A3032 RMK A01 T00231057  RH  055%=      5-min Rain = 0
KCA1 120234Z 03008KT 02/M06 A3032 RMK A01 T00231057  RH  055%=      5-min Rain = 0
KCA1 120235Z 03008KT 02/M06 A3032 RMK A01 T00231057  RH  055%=      5-min Rain = 0
KCA1 120236Z 03008KT 02/M06 A3032 RMK A01 T00241056  RH  055%=      5-min Rain = 0
KCA1 120237Z 03008KT 02/M06 A3032 RMK A01 T00231057  RH  055%=      5-min Rain = 0
KCA1 120238Z 03008KT 02/M06 A3032 RMK A01 T00221057  RH  056%=      5-min Rain = 0
KCA1 120239Z 03008KT 02/M06 A3032 RMK A01 T00211058  RH  056%=      5-min Rain = 0
KCA1 120240Z 03008KT 02/M06 A3032 RMK A01 T00211058  RH  056%=      5-min Rain = 0
KCA1 120241Z 03008KT 02/M06 A3033 RMK A01 T00201058  RH  056%=      5-min Rain = 0
KCA1 120242Z 03008KT 02/M06 A3033 RMK A01 T00191058  RH  057%=      5-min Rain = 0
KCA1 120243Z 03008KT 02/M06 A3033 RMK A01 T00181059  RH  057%=      5-min Rain = 0
KCA1 120244Z 03008KT 02/M06 A3033 RMK A01 T00171059  RH  057%=      5-min Rain = 0
KCA1 120245Z 03008KT 02/M06 A3033 RMK A01 T00161059  RH  057%=      5-min Rain = 0
KCA1 120246Z 03008KT 02/M06 A3033 RMK A01 T00161059  RH  058%=      5-min Rain = 0
KCA1 120247Z 03008KT 02/M06 A3033 RMK A01 T00151059  RH  058%=      5-min Rain = 0
KCA1 120248Z 03008KT 02/M06 A3033 RMK A01 T00151059  RH  058%=      5-min Rain = 0
KCA1 120249Z 03008KT 01/M06 A3033 RMK A01 T00141059  RH  058%=      5-min Rain = 0
KCA1 120250Z 03008KT 01/M06 A3033 RMK A01 T00141059  RH  058%=      5-min Rain = 0
KCA1 120251Z 03008KT 01/M06 A3033 RMK A01 T00131059  RH  058%=      5-min Rain = 0
KCA1 120252Z 03008KT 01/M06 A3033 RMK A01 T00131059  RH  059%=      5-min Rain = 0
KCA1 120253Z 03008KT 01/M06 A3033 RMK A01 T00141058  RH  059%=      5-min Rain = 0
KCA1 120254Z 03008KT 02/M06 A3033 RMK A01 T00151058  RH  058%=      5-min Rain = 0
KCA1 120255Z 03008KT 02/M06 A3033 RMK A01 T00151058  RH  058%=      5-min Rain = 0
KCA1 120256Z 03008KT 02/M06 A3033 RMK A01 T00151058  RH  058%=      5-min Rain = 0
KCA1 120257Z 03008KT 02/M06 A3033 RMK A01 T00151058  RH  058%=      5-min Rain = 0
KCA1 120258Z 03008KT 02/M06 A3033 RMK A01 T00161057  RH  058%=      5-min Rain = 0
KCA1 120259Z 03008KT 02/M06 A3033 RMK A01 T00161057  RH  058%=      5-min Rain = 0
KCA1 120300Z 03009KT 02/M06 A3033 RMK A01 T00161057  RH  058%=      5-min Rain = 0
KCA1 120301Z 03008KT 02/M06 A3033 RMK A01 T00171057  RH  058%=      5-min Rain = 0
KCA1 120302Z 03009KT 02/M06 A3033 RMK A01 T00161057  RH  058%=      5-min Rain = 0
KCA1 120303Z 03009KT 02/M06 A3033 RMK A01 T00171057  RH  058%=      5-min Rain = 0
KCA1 120304Z 03009KT 02/M06 A3033 RMK A01 T00161057  RH  058%=      5-min Rain = 0
KCA1 120305Z 03009KT 02/M06 A3033 RMK A01 T00161057  RH  058%=      5-min Rain = 0
KCA1 120306Z 03009KT 02/M06 A3033 RMK A01 T00161057  RH  058%=      5-min Rain = 0
KCA1 120307Z 03009KT 02/M06 A3033 RMK A01 T00161057  RH  059%=      5-min Rain = 0
KCA1 120308Z 03009KT 02/M06 A3033 RMK A01 T00151057  RH  059%=      5-min Rain = 0
KCA1 120309Z 03009KT 02/M06 A3033 RMK A01 T00151057  RH  059%=      5-min Rain = 0
KCA1 120310Z 03009KT 02/M06 A3033 RMK A01 T00151057  RH  059%=      5-min Rain = 0
KCA1 120311Z 03009KT 01/M06 A3033 RMK A01 T00141058  RH  059%=      5-min Rain = 0
KCA1 120312Z 03009KT 01/M06 A3033 RMK A01 T00141058  RH  059%=      5-min Rain = 0
KCA1 120313Z 03009KT 01/M06 A3033 RMK A01 T00141058  RH  059%=      5-min Rain = 0
KCA1 120314Z 03009KT 01/M06 A3033 RMK A01 T00141058  RH  059%=      5-min Rain = 0
KCA1 120315Z 03009KT 01/M06 A3034 RMK A01 T00131058  RH  059%=      5-min Rain = 0
KCA1 120316Z 03008KT 01/M06 A3034 RMK A01 T00131058  RH  059%=      5-min Rain = 0
KCA1 120317Z 03009KT 01/M06 A3034 RMK A01 T00131058  RH  059%=      5-min Rain = 0
KCA1 120318Z 03008KT 01/M06 A3034 RMK A01 T00131058  RH  059%=      5-min Rain = 0
KCA1 120319Z 03008KT 01/M06 A3034 RMK A01 T00131058  RH  059%=      5-min Rain = 0
KCA1 120320Z 03008KT 01/M06 A3034 RMK A01 T00121059  RH  059%=      5-min Rain = 0
KCA1 120321Z 03008KT 01/M06 A3034 RMK A01 T00121058  RH  059%=      5-min Rain = 0
KCA1 120322Z 03008KT 01/M06 A3034 RMK A01 T00111059  RH  059%=      5-min Rain = 0
KCA1 120323Z 03008KT 01/M06 A3034 RMK A01 T00111059  RH  060%=      5-min Rain = 0
KCA1 120324Z 03008KT 01/M06 A3034 RMK A01 T00111059  RH  060%=      5-min Rain = 0
KCA1 120325Z 03008KT 01/M06 A3034 RMK A01 T00111059  RH  060%=      5-min Rain = 0
KCA1 120326Z 03008KT 01/M06 A3034 RMK A01 T00111058  RH  060%=      5-min Rain = 0
KCA1 120327Z 03008KT 01/M06 A3034 RMK A01 T00111059  RH  060%=      5-min Rain = 0
KCA1 120328Z 03009KT 01/M06 A3034 RMK A01 T00111059  RH  060%=      5-min Rain = 0
KCA1 120329Z 03009KT 01/M06 A3034 RMK A01 T00111058  RH  060%=      5-min Rain = 0
KCA1 120330Z 03009KT 01/M06 A3034 RMK A01 T00101059  RH  060%=      5-min Rain = 0
KCA1 120331Z 04009KT 01/M06 A3034 RMK A01 T00101059  RH  060%=      5-min Rain = 0
KCA1 120332Z 04009KT 01/M06 A3034 RMK A01 T00101059  RH  060%=      5-min Rain = 0
KCA1 120333Z 03008KT 01/M06 A3034 RMK A01 T00091059  RH  060%=      5-min Rain = 0
KCA1 120334Z 03008KT 01/M06 A3034 RMK A01 T00091059  RH  060%=      5-min Rain = 0
KCA1 120335Z 03008KT 01/M06 A3034 RMK A01 T00081060  RH  060%=      5-min Rain = 0
KCA1 120336Z 03008KT 01/M06 A3034 RMK A01 T00081060  RH  061%=      5-min Rain = 0
KCA1 120337Z 03008KT 01/M06 A3034 RMK A01 T00071060  RH  061%=      5-min Rain = 0
KCA1 120338Z 03008KT 01/M06 A3034 RMK A01 T00071060  RH  061%=      5-min Rain = 0
KCA1 120339Z 03008KT 01/M06 A3034 RMK A01 T00061060  RH  061%=      5-min Rain = 0
KCA1 120340Z 03008KT 01/M06 A3034 RMK A01 T00061060  RH  061%=      5-min Rain = 0
KCA1 120341Z 03008KT 01/M06 A3034 RMK A01 T00061060  RH  061%=      5-min Rain = 0
KCA1 120342Z 03008KT 01/M06 A3035 RMK A01 T00061059  RH  062%=      5-min Rain = 0
KCA1 120343Z 03008KT 01/M06 A3035 RMK A01 T00061059  RH  062%=      5-min Rain = 0
KCA1 120344Z 03008KT 01/M06 A3035 RMK A01 T00061059  RH  062%=      5-min Rain = 0
KCA1 120345Z 03008KT 01/M06 A3035 RMK A01 T00061059  RH  062%=      5-min Rain = 0
KCA1 120346Z 03007KT 01/M06 A3035 RMK A01 T00061058  RH  062%=      5-min Rain = 0
KCA1 120347Z 03007KT 01/M06 A3035 RMK A01 T00061058  RH  062%=      5-min Rain = 0
KCA1 120348Z 03007KT 01/M06 A3035 RMK A01 T00071058  RH  062%=      5-min Rain = 0
KCA1 120349Z 03007KT 01/M06 A3035 RMK A01 T00071058  RH  062%=      5-min Rain = 0
KCA1 120350Z 03006KT 01/M06 A3035 RMK A01 T00071058  RH  062%=      5-min Rain = 0
KCA1 120351Z 03006KT 01/M06 A3035 RMK A01 T00081057  RH  062%=      5-min Rain = 0
KCA1 120352Z 03005KT 01/M06 A3035 RMK A01 T00081058  RH  061%=      5-min Rain = 0
KCA1 120353Z 03003KT 01/M06 A3035 RMK A01 T00071059  RH  061%=      5-min Rain = 0
KCA1 120354Z 03002KT 01/M06 A3035 RMK A01 T00061060  RH  061%=      5-min Rain = 0
KCA1 120355Z 02001KT 01/M06 A3035 RMK A01 T00051061  RH  061%=      5-min Rain = 0
KCA1 120356Z 00000KT 00/M06 A3035 RMK A01 T00041061  RH  061%=      5-min Rain = 0
KCA1 120357Z 00000KT 00/M06 A3035 RMK A01 T00031062  RH  062%=      5-min Rain = 0
KCA1 120358Z 00001KT 00/M06 A3035 RMK A01 T00031061  RH  062%=      5-min Rain = 0
KCA1 120359Z 02001KT 00/M06 A3035 RMK A01 T00031061  RH  062%=      5-min Rain = 0
KCA1 120400Z 02002KT 00/M06 A3035 RMK A01 T00031059  RH  063%=      5-min Rain = 0
KCA1 120401Z 02003KT 00/M06 A3035 RMK A01 T00041059  RH  063%=      5-min Rain = 0
KCA1 120402Z 03004KT 00/M06 A3035 RMK A01 T00041059  RH  063%=      5-min Rain = 0
KCA1 120403Z 03005KT 00/M06 A3035 RMK A01 T00031061  RH  062%=      5-min Rain = 0
KCA1 120404Z 03006KT 00/06 A3035 RMK A01 T00000-63  RH  062%=      5-min Rain = 0
KCA1 120405Z 03006KT M00/M07 A3035 RMK A01 T10021065  RH  062%=      5-min Rain = 0
KCA1 120406Z 03007KT M00/M07 A3035 RMK A01 T10041066  RH  063%=      5-min Rain = 0
KCA1 120407Z 03008KT M01/M07 A3035 RMK A01 T10061066  RH  064%=      5-min Rain = 0
KCA1 120408Z 03008KT M01/M07 A3035 RMK A01 T10061065  RH  064%=      5-min Rain = 0
KCA1 120409Z 03008KT M01/M07 A3035 RMK A01 T10061065  RH  064%=      5-min Rain = 0
KCA1 120410Z 03008KT M01/M06 A3035 RMK A01 T10051064  RH  064%=      5-min Rain = 0
KCA1 120411Z 03008KT M01/M06 A3035 RMK A01 T10051064  RH  064%=      5-min Rain = 0
KCA1 120412Z 03008KT M00/M06 A3035 RMK A01 T10041064  RH  064%=      5-min Rain = 0
KCA1 120413Z 03008KT M00/M06 A3035 RMK A01 T10041064  RH  064%=      5-min Rain = 0
KCA1 120414Z 03008KT M00/M06 A3035 RMK A01 T10031063  RH  064%=      5-min Rain = 0
KCA1 120415Z 03008KT M00/M06 A3035 RMK A01 T10021062  RH  064%=      5-min Rain = 0
KCA1 120416Z 03008KT M00/M06 A3035 RMK A01 T10011061  RH  064%=      5-min Rain = 0
KCA1 120417Z 03008KT 00/06 A3035 RMK A01 T00000-61  RH  063%=      5-min Rain = 0
KCA1 120418Z 02008KT 00/M06 A3035 RMK A01 T00011061  RH  063%=      5-min Rain = 0
KCA1 120419Z 03009KT 00/M06 A3035 RMK A01 T00011061  RH  063%=      5-min Rain = 0
KCA1 120420Z 03009KT 00/M06 A3035 RMK A01 T00021061  RH  063%=      5-min Rain = 0
KCA1 120421Z 03009KT 00/M06 A3035 RMK A01 T00021060  RH  063%=      5-min Rain = 0
KCA1 120422Z 03009KT 00/M06 A3035 RMK A01 T00021060  RH  063%=      5-min Rain = 0
KCA1 120423Z 03009KT 00/M06 A3035 RMK A01 T00031060  RH  063%=      5-min Rain = 0
KCA1 120424Z 03009KT 00/M06 A3035 RMK A01 T00041060  RH  063%=      5-min Rain = 0
KCA1 120425Z 02009KT 00/M06 A3035 RMK A01 T00031060  RH  063%=      5-min Rain = 0
KCA1 120426Z 03009KT 00/M06 A3035 RMK A01 T00031060  RH  062%=      5-min Rain = 0
KCA1 120427Z 03009KT 00/M06 A3035 RMK A01 T00031060  RH  062%=      5-min Rain = 0
KCA1 120428Z 03009KT 00/M06 A3035 RMK A01 T00031061  RH  062%=      5-min Rain = 0
KCA1 120429Z 03009KT 00/M06 A3035 RMK A01 T00031061  RH  063%=      5-min Rain = 0
KCA1 120430Z 03009KT 00/M06 A3035 RMK A01 T00021061  RH  063%=      5-min Rain = 0
KCA1 120431Z 03009KT 00/M06 A3035 RMK A01 T00021061  RH  063%=      5-min Rain = 0
KCA1 120432Z 03008KT 00/M06 A3035 RMK A01 T00021060  RH  063%=      5-min Rain = 0
KCA1 120433Z 03008KT 00/M06 A3035 RMK A01 T00021060  RH  063%=      5-min Rain = 0
KCA1 120434Z 03008KT 00/M06 A3035 RMK A01 T00011061  RH  063%=      5-min Rain = 0
KCA1 120435Z 03008KT 00/06 A3035 RMK A01 T00000-62  RH  063%=      5-min Rain = 0
KCA1 120436Z 03008KT M00/M06 A3035 RMK A01 T10011063  RH  063%=      5-min Rain = 0
KCA1 120437Z 03008KT M00/M06 A3035 RMK A01 T10021063  RH  064%=      5-min Rain = 0
KCA1 120438Z 03008KT M00/M06 A3035 RMK A01 T10021062  RH  064%=      5-min Rain = 0
KCA1 120439Z 03008KT M00/M06 A3036 RMK A01 T10021062  RH  064%=      5-min Rain = 0
KCA1 120440Z 03007KT M00/M06 A3036 RMK A01 T10021062  RH  064%=      5-min Rain = 0
KCA1 120441Z 03007KT M00/M06 A3036 RMK A01 T10021061  RH  064%=      5-min Rain = 0
KCA1 120442Z 04005KT M00/M06 A3036 RMK A01 T10021061  RH  064%=      5-min Rain = 0
KCA1 120443Z 05002KT M00/M06 A3036 RMK A01 T10021062  RH  064%=      5-min Rain = 0
KCA1 120444Z 18001KT M00/M07 A3036 RMK A01 T10041065  RH  063%=      5-min Rain = 0
KCA1 120445Z 19002KT M01/M07 A3036 RMK A01 T10081069  RH  063%=      5-min Rain = 0
KCA1 120446Z 21002KT M01/M07 A3036 RMK A01 T10111070  RH  064%=      5-min Rain = 0
KCA1 120447Z 23002KT M01/M07 A3036 RMK A01 T10131070  RH  065%=      5-min Rain = 0
KCA1 120448Z 23001KT M01/M07 A3036 RMK A01 T10141069  RH  066%=      5-min Rain = 0
KCA1 120449Z 24002KT M01/M07 A3036 RMK A01 T10141067  RH  067%=      5-min Rain = 0
KCA1 120450Z 21001KT M01/M07 A3036 RMK A01 T10131067  RH  067%=      5-min Rain = 0
KCA1 120451Z 19001KT M01/M07 A3036 RMK A01 T10131068  RH  066%=      5-min Rain = 0
KCA1 120452Z 19000KT M01/M07 A3036 RMK A01 T10121066  RH  067%=      5-min Rain = 0
KCA1 120453Z 25000KT M01/M06 A3036 RMK A01 T10121063  RH  068%=      5-min Rain = 0
KCA1 120454Z 04002KT M01/M06 A3036 RMK A01 T10101062  RH  068%=      5-min Rain = 0
KCA1 120455Z 05001KT M01/M06 A3036 RMK A01 T10071058  RH  068%=      5-min Rain = 0
KCA1 120456Z 06001KT M01/M06 A3036 RMK A01 T10051057  RH  068%=      5-min Rain = 0
KCA1 120457Z 10001KT M00/M06 A3036 RMK A01 T10031055  RH  068%=      5-min Rain = 0
KCA1 120458Z 11000KT M00/M06 A3036 RMK A01 T10011055  RH  067%=      5-min Rain = 0
KCA1 120459Z 07001KT M00/M06 A3036 RMK A01 T10011056  RH  066%=      5-min Rain = 0

Page generated in 0.0797 seconds.